<?xml version="1.0" encoding="UTF-8" standalone="no" ?>
<gpx xmlns="http://www.topografix.com/GPX/1/1" xmlns:xsi="http://www.w3.org/2001/XMLSchema-instance" xsi:schemaLocation="http://www.topografix.com/GPX/1/1 http://www.topografix.com/GPX/1/1/gpx.xsd" version="1.1" creator="VisuGPX - https://www.visugpx.com">
  <metadata>
    <name>Pointes de la Carmélite</name>
    <desc><![CDATA[On chausse là où la route est encore enneigée juste sous le hameau du col des Annes. Neige dure après le regel nocturne. Passage à mi-hauteur sous la pointe sans nom en direction du col de l'Oulettaz; couteaux utiles. Sentier sous le col déneigé (orienté sud) sur 50m. Montée sans souci, on enlève les couteaux dès que c'est moins raide. Vu une personne monter ski au pied jusqu'au sommet de la pointe principale de la Carmélite en passant par la gauche. Comme il fallait déchausser sur un passage caillouteux et que les derniers 30m de gauche sont très exposés, passé par la droite vers un petit replat puis traversée vers la pointe et 10m finaux en grimpe niveau 2 jusqu'au sommet.]]></desc>
  </metadata>
  <trk>
    <name><![CDATA[Pointes de la Carmélite_1]]></name>
    <trkseg>
      <trkpt lat="45.96835" lon="6.5165">
        <ele>1654</ele>
        <time>2022-05-01T07:07:17Z</time>
      </trkpt>
      <trkpt lat="45.96844" lon="6.51657">
        <ele>1653</ele>
        <time>2022-05-01T07:14:07Z</time>
      </trkpt>
      <trkpt lat="45.9685" lon="6.51683">
        <ele>1649</ele>
        <time>2022-05-01T07:14:28Z</time>
      </trkpt>
      <trkpt lat="45.9685" lon="6.51696">
        <ele>1649</ele>
        <time>2022-05-01T07:14:36Z</time>
      </trkpt>
      <trkpt lat="45.9685" lon="6.51715">
        <ele>1649</ele>
        <time>2022-05-01T07:14:51Z</time>
      </trkpt>
      <trkpt lat="45.96849" lon="6.51726">
        <ele>1651</ele>
        <time>2022-05-01T07:15:00Z</time>
      </trkpt>
      <trkpt lat="45.96846" lon="6.51736">
        <ele>1652</ele>
        <time>2022-05-01T07:15:59Z</time>
      </trkpt>
      <trkpt lat="45.96845" lon="6.51752">
        <ele>1653</ele>
        <time>2022-05-01T07:16:12Z</time>
      </trkpt>
      <trkpt lat="45.96842" lon="6.51768">
        <ele>1653</ele>
        <time>2022-05-01T07:16:20Z</time>
      </trkpt>
      <trkpt lat="45.96843" lon="6.51778">
        <ele>1654</ele>
        <time>2022-05-01T07:16:58Z</time>
      </trkpt>
      <trkpt lat="45.96844" lon="6.5179">
        <ele>1655</ele>
        <time>2022-05-01T07:17:03Z</time>
      </trkpt>
      <trkpt lat="45.96845" lon="6.518">
        <ele>1656</ele>
        <time>2022-05-01T07:17:12Z</time>
      </trkpt>
      <trkpt lat="45.96843" lon="6.5181">
        <ele>1657</ele>
        <time>2022-05-01T07:17:23Z</time>
      </trkpt>
      <trkpt lat="45.96833" lon="6.51839">
        <ele>1659</ele>
        <time>2022-05-01T07:17:52Z</time>
      </trkpt>
      <trkpt lat="45.96832" lon="6.51849">
        <ele>1660</ele>
        <time>2022-05-01T07:18:00Z</time>
      </trkpt>
      <trkpt lat="45.9683" lon="6.51893">
        <ele>1662</ele>
        <time>2022-05-01T07:18:32Z</time>
      </trkpt>
      <trkpt lat="45.96829" lon="6.51903">
        <ele>1663</ele>
        <time>2022-05-01T07:18:42Z</time>
      </trkpt>
      <trkpt lat="45.96832" lon="6.51912">
        <ele>1664</ele>
        <time>2022-05-01T07:18:52Z</time>
      </trkpt>
      <trkpt lat="45.96834" lon="6.51931">
        <ele>1665</ele>
        <time>2022-05-01T07:19:11Z</time>
      </trkpt>
      <trkpt lat="45.96834" lon="6.51942">
        <ele>1666</ele>
        <time>2022-05-01T07:19:22Z</time>
      </trkpt>
      <trkpt lat="45.9684" lon="6.51949">
        <ele>1666</ele>
        <time>2022-05-01T07:19:33Z</time>
      </trkpt>
      <trkpt lat="45.96846" lon="6.51955">
        <ele>1666</ele>
        <time>2022-05-01T07:19:46Z</time>
      </trkpt>
      <trkpt lat="45.96851" lon="6.51964">
        <ele>1665</ele>
        <time>2022-05-01T07:19:56Z</time>
      </trkpt>
      <trkpt lat="45.96858" lon="6.51984">
        <ele>1666</ele>
        <time>2022-05-01T07:20:09Z</time>
      </trkpt>
      <trkpt lat="45.96862" lon="6.52005">
        <ele>1669</ele>
        <time>2022-05-01T07:20:25Z</time>
      </trkpt>
      <trkpt lat="45.96863" lon="6.52016">
        <ele>1670</ele>
        <time>2022-05-01T07:20:33Z</time>
      </trkpt>
      <trkpt lat="45.96867" lon="6.52026">
        <ele>1672</ele>
        <time>2022-05-01T07:20:44Z</time>
      </trkpt>
      <trkpt lat="45.96867" lon="6.52037">
        <ele>1673</ele>
        <time>2022-05-01T07:20:51Z</time>
      </trkpt>
      <trkpt lat="45.96869" lon="6.52048">
        <ele>1673</ele>
        <time>2022-05-01T07:20:59Z</time>
      </trkpt>
      <trkpt lat="45.96873" lon="6.52057">
        <ele>1674</ele>
        <time>2022-05-01T07:21:10Z</time>
      </trkpt>
      <trkpt lat="45.96881" lon="6.52078">
        <ele>1674</ele>
        <time>2022-05-01T07:21:24Z</time>
      </trkpt>
      <trkpt lat="45.96884" lon="6.52088">
        <ele>1675</ele>
        <time>2022-05-01T07:21:33Z</time>
      </trkpt>
      <trkpt lat="45.96887" lon="6.52109">
        <ele>1675</ele>
        <time>2022-05-01T07:21:50Z</time>
      </trkpt>
      <trkpt lat="45.9689" lon="6.52119">
        <ele>1675</ele>
        <time>2022-05-01T07:21:57Z</time>
      </trkpt>
      <trkpt lat="45.96893" lon="6.52129">
        <ele>1675</ele>
        <time>2022-05-01T07:22:06Z</time>
      </trkpt>
      <trkpt lat="45.96897" lon="6.52153">
        <ele>1675</ele>
        <time>2022-05-01T07:22:25Z</time>
      </trkpt>
      <trkpt lat="45.96901" lon="6.52174">
        <ele>1676</ele>
        <time>2022-05-01T07:22:43Z</time>
      </trkpt>
      <trkpt lat="45.96907" lon="6.52198">
        <ele>1677</ele>
        <time>2022-05-01T07:23:04Z</time>
      </trkpt>
      <trkpt lat="45.96909" lon="6.52214">
        <ele>1678</ele>
        <time>2022-05-01T07:23:15Z</time>
      </trkpt>
      <trkpt lat="45.96913" lon="6.52224">
        <ele>1680</ele>
        <time>2022-05-01T07:23:30Z</time>
      </trkpt>
      <trkpt lat="45.96914" lon="6.52235">
        <ele>1681</ele>
        <time>2022-05-01T07:23:38Z</time>
      </trkpt>
      <trkpt lat="45.96918" lon="6.52246">
        <ele>1681</ele>
        <time>2022-05-01T07:23:47Z</time>
      </trkpt>
      <trkpt lat="45.96922" lon="6.52255">
        <ele>1682</ele>
        <time>2022-05-01T07:23:55Z</time>
      </trkpt>
      <trkpt lat="45.96925" lon="6.52266">
        <ele>1683</ele>
        <time>2022-05-01T07:24:05Z</time>
      </trkpt>
      <trkpt lat="45.96928" lon="6.52275">
        <ele>1685</ele>
        <time>2022-05-01T07:24:14Z</time>
      </trkpt>
      <trkpt lat="45.9693" lon="6.52285">
        <ele>1686</ele>
        <time>2022-05-01T07:24:25Z</time>
      </trkpt>
      <trkpt lat="45.96936" lon="6.52328">
        <ele>1691</ele>
        <time>2022-05-01T07:25:04Z</time>
      </trkpt>
      <trkpt lat="45.96939" lon="6.52338">
        <ele>1693</ele>
        <time>2022-05-01T07:25:17Z</time>
      </trkpt>
      <trkpt lat="45.96941" lon="6.52348">
        <ele>1694</ele>
        <time>2022-05-01T07:25:28Z</time>
      </trkpt>
      <trkpt lat="45.9694" lon="6.52358">
        <ele>1696</ele>
        <time>2022-05-01T07:25:39Z</time>
      </trkpt>
      <trkpt lat="45.96932" lon="6.52366">
        <ele>1699</ele>
        <time>2022-05-01T07:25:55Z</time>
      </trkpt>
      <trkpt lat="45.96926" lon="6.52385">
        <ele>1707</ele>
        <time>2022-05-01T07:26:30Z</time>
      </trkpt>
      <trkpt lat="45.96925" lon="6.52393">
        <ele>1708</ele>
        <time>2022-05-01T07:26:39Z</time>
      </trkpt>
      <trkpt lat="45.96916" lon="6.52422">
        <ele>1711</ele>
        <time>2022-05-01T07:27:21Z</time>
      </trkpt>
      <trkpt lat="45.96907" lon="6.52439">
        <ele>1715</ele>
        <time>2022-05-01T07:27:45Z</time>
      </trkpt>
      <trkpt lat="45.96906" lon="6.52451">
        <ele>1717</ele>
        <time>2022-05-01T07:27:56Z</time>
      </trkpt>
      <trkpt lat="45.96902" lon="6.52459">
        <ele>1719</ele>
        <time>2022-05-01T07:28:09Z</time>
      </trkpt>
      <trkpt lat="45.96899" lon="6.52469">
        <ele>1721</ele>
        <time>2022-05-01T07:28:18Z</time>
      </trkpt>
      <trkpt lat="45.96894" lon="6.525">
        <ele>1725</ele>
        <time>2022-05-01T07:28:49Z</time>
      </trkpt>
      <trkpt lat="45.96889" lon="6.52507">
        <ele>1727</ele>
        <time>2022-05-01T07:29:02Z</time>
      </trkpt>
      <trkpt lat="45.96888" lon="6.52516">
        <ele>1730</ele>
        <time>2022-05-01T07:29:23Z</time>
      </trkpt>
      <trkpt lat="45.96886" lon="6.52527">
        <ele>1732</ele>
        <time>2022-05-01T07:29:38Z</time>
      </trkpt>
      <trkpt lat="45.96885" lon="6.52533">
        <ele>1736</ele>
        <time>2022-05-01T07:31:43Z</time>
      </trkpt>
      <trkpt lat="45.96885" lon="6.52546">
        <ele>1737</ele>
        <time>2022-05-01T07:32:06Z</time>
      </trkpt>
      <trkpt lat="45.9688" lon="6.5256">
        <ele>1744</ele>
        <time>2022-05-01T07:32:23Z</time>
      </trkpt>
      <trkpt lat="45.96873" lon="6.52571">
        <ele>1747</ele>
        <time>2022-05-01T07:32:34Z</time>
      </trkpt>
      <trkpt lat="45.96867" lon="6.52578">
        <ele>1749</ele>
        <time>2022-05-01T07:32:50Z</time>
      </trkpt>
      <trkpt lat="45.96858" lon="6.52595">
        <ele>1750</ele>
        <time>2022-05-01T07:33:08Z</time>
      </trkpt>
      <trkpt lat="45.96854" lon="6.52603">
        <ele>1751</ele>
        <time>2022-05-01T07:33:19Z</time>
      </trkpt>
      <trkpt lat="45.96848" lon="6.52609">
        <ele>1753</ele>
        <time>2022-05-01T07:33:39Z</time>
      </trkpt>
      <trkpt lat="45.96843" lon="6.52619">
        <ele>1754</ele>
        <time>2022-05-01T07:33:50Z</time>
      </trkpt>
      <trkpt lat="45.96837" lon="6.52625">
        <ele>1755</ele>
        <time>2022-05-01T07:34:00Z</time>
      </trkpt>
      <trkpt lat="45.96828" lon="6.52628">
        <ele>1757</ele>
        <time>2022-05-01T07:34:14Z</time>
      </trkpt>
      <trkpt lat="45.96823" lon="6.52629">
        <ele>1758</ele>
        <time>2022-05-01T07:34:21Z</time>
      </trkpt>
      <trkpt lat="45.96815" lon="6.52632">
        <ele>1759</ele>
        <time>2022-05-01T07:34:30Z</time>
      </trkpt>
      <trkpt lat="45.96799" lon="6.52636">
        <ele>1761</ele>
        <time>2022-05-01T07:34:57Z</time>
      </trkpt>
      <trkpt lat="45.96792" lon="6.5264">
        <ele>1762</ele>
        <time>2022-05-01T07:35:09Z</time>
      </trkpt>
      <trkpt lat="45.96774" lon="6.5264">
        <ele>1764</ele>
        <time>2022-05-01T07:35:46Z</time>
      </trkpt>
      <trkpt lat="45.96761" lon="6.52643">
        <ele>1770</ele>
        <time>2022-05-01T07:36:14Z</time>
      </trkpt>
      <trkpt lat="45.96746" lon="6.52646">
        <ele>1776</ele>
        <time>2022-05-01T07:36:58Z</time>
      </trkpt>
      <trkpt lat="45.9673" lon="6.52649">
        <ele>1781</ele>
        <time>2022-05-01T07:37:20Z</time>
      </trkpt>
      <trkpt lat="45.96724" lon="6.52652">
        <ele>1782</ele>
        <time>2022-05-01T07:37:34Z</time>
      </trkpt>
      <trkpt lat="45.96717" lon="6.52656">
        <ele>1786</ele>
        <time>2022-05-01T07:37:51Z</time>
      </trkpt>
      <trkpt lat="45.9671" lon="6.52658">
        <ele>1789</ele>
        <time>2022-05-01T07:38:16Z</time>
      </trkpt>
      <trkpt lat="45.96705" lon="6.52663">
        <ele>1793</ele>
        <time>2022-05-01T07:38:26Z</time>
      </trkpt>
      <trkpt lat="45.96688" lon="6.52661">
        <ele>1798</ele>
        <time>2022-05-01T07:39:17Z</time>
      </trkpt>
      <trkpt lat="45.96684" lon="6.52655">
        <ele>1798</ele>
        <time>2022-05-01T07:39:25Z</time>
      </trkpt>
      <trkpt lat="45.96676" lon="6.52655">
        <ele>1798</ele>
        <time>2022-05-01T07:39:40Z</time>
      </trkpt>
      <trkpt lat="45.9667" lon="6.52658">
        <ele>1800</ele>
        <time>2022-05-01T07:39:53Z</time>
      </trkpt>
      <trkpt lat="45.96661" lon="6.52656">
        <ele>1803</ele>
        <time>2022-05-01T07:40:05Z</time>
      </trkpt>
      <trkpt lat="45.96655" lon="6.52658">
        <ele>1807</ele>
        <time>2022-05-01T07:40:48Z</time>
      </trkpt>
      <trkpt lat="45.96648" lon="6.52657">
        <ele>1808</ele>
        <time>2022-05-01T07:40:57Z</time>
      </trkpt>
      <trkpt lat="45.96642" lon="6.52658">
        <ele>1808</ele>
        <time>2022-05-01T07:41:07Z</time>
      </trkpt>
      <trkpt lat="45.96635" lon="6.52652">
        <ele>1808</ele>
        <time>2022-05-01T07:41:19Z</time>
      </trkpt>
      <trkpt lat="45.96629" lon="6.52647">
        <ele>1809</ele>
        <time>2022-05-01T07:41:28Z</time>
      </trkpt>
      <trkpt lat="45.96615" lon="6.52642">
        <ele>1811</ele>
        <time>2022-05-01T07:41:49Z</time>
      </trkpt>
      <trkpt lat="45.96609" lon="6.52642">
        <ele>1811</ele>
        <time>2022-05-01T07:42:02Z</time>
      </trkpt>
      <trkpt lat="45.96604" lon="6.5264">
        <ele>1815</ele>
        <time>2022-05-01T07:42:46Z</time>
      </trkpt>
      <trkpt lat="45.9659" lon="6.52638">
        <ele>1815</ele>
        <time>2022-05-01T07:43:00Z</time>
      </trkpt>
      <trkpt lat="45.96582" lon="6.52637">
        <ele>1815</ele>
        <time>2022-05-01T07:43:08Z</time>
      </trkpt>
      <trkpt lat="45.96576" lon="6.52635">
        <ele>1816</ele>
        <time>2022-05-01T07:43:16Z</time>
      </trkpt>
      <trkpt lat="45.96569" lon="6.52632">
        <ele>1817</ele>
        <time>2022-05-01T07:43:24Z</time>
      </trkpt>
      <trkpt lat="45.9656" lon="6.52629">
        <ele>1818</ele>
        <time>2022-05-01T07:43:31Z</time>
      </trkpt>
      <trkpt lat="45.96554" lon="6.52624">
        <ele>1819</ele>
        <time>2022-05-01T07:43:50Z</time>
      </trkpt>
      <trkpt lat="45.96547" lon="6.52623">
        <ele>1819</ele>
        <time>2022-05-01T07:44:01Z</time>
      </trkpt>
      <trkpt lat="45.96539" lon="6.52625">
        <ele>1820</ele>
        <time>2022-05-01T07:44:13Z</time>
      </trkpt>
      <trkpt lat="45.96534" lon="6.52625">
        <ele>1822</ele>
        <time>2022-05-01T07:44:21Z</time>
      </trkpt>
      <trkpt lat="45.96527" lon="6.52622">
        <ele>1823</ele>
        <time>2022-05-01T07:44:35Z</time>
      </trkpt>
      <trkpt lat="45.96511" lon="6.52615">
        <ele>1826</ele>
        <time>2022-05-01T07:44:54Z</time>
      </trkpt>
      <trkpt lat="45.96504" lon="6.52613">
        <ele>1830</ele>
        <time>2022-05-01T07:45:09Z</time>
      </trkpt>
      <trkpt lat="45.96495" lon="6.5261">
        <ele>1831</ele>
        <time>2022-05-01T07:45:20Z</time>
      </trkpt>
      <trkpt lat="45.96482" lon="6.52618">
        <ele>1837</ele>
        <time>2022-05-01T07:45:45Z</time>
      </trkpt>
      <trkpt lat="45.96474" lon="6.52616">
        <ele>1838</ele>
        <time>2022-05-01T07:45:57Z</time>
      </trkpt>
      <trkpt lat="45.96467" lon="6.52617">
        <ele>1840</ele>
        <time>2022-05-01T07:46:07Z</time>
      </trkpt>
      <trkpt lat="45.96461" lon="6.52615">
        <ele>1841</ele>
        <time>2022-05-01T07:46:17Z</time>
      </trkpt>
      <trkpt lat="45.96455" lon="6.52615">
        <ele>1842</ele>
        <time>2022-05-01T07:46:28Z</time>
      </trkpt>
      <trkpt lat="45.96446" lon="6.52617">
        <ele>1843</ele>
        <time>2022-05-01T07:46:44Z</time>
      </trkpt>
      <trkpt lat="45.96438" lon="6.52621">
        <ele>1848</ele>
        <time>2022-05-01T07:47:01Z</time>
      </trkpt>
      <trkpt lat="45.96432" lon="6.52625">
        <ele>1850</ele>
        <time>2022-05-01T07:47:16Z</time>
      </trkpt>
      <trkpt lat="45.96431" lon="6.52633">
        <ele>1852</ele>
        <time>2022-05-01T07:47:25Z</time>
      </trkpt>
      <trkpt lat="45.96429" lon="6.52641">
        <ele>1853</ele>
        <time>2022-05-01T07:47:38Z</time>
      </trkpt>
      <trkpt lat="45.96433" lon="6.52658">
        <ele>1855</ele>
        <time>2022-05-01T07:48:04Z</time>
      </trkpt>
      <trkpt lat="45.96437" lon="6.52665">
        <ele>1857</ele>
        <time>2022-05-01T07:48:20Z</time>
      </trkpt>
      <trkpt lat="45.96439" lon="6.52673">
        <ele>1858</ele>
        <time>2022-05-01T07:48:28Z</time>
      </trkpt>
      <trkpt lat="45.96443" lon="6.52681">
        <ele>1859</ele>
        <time>2022-05-01T07:48:40Z</time>
      </trkpt>
      <trkpt lat="45.96449" lon="6.52684">
        <ele>1859</ele>
        <time>2022-05-01T07:48:51Z</time>
      </trkpt>
      <trkpt lat="45.96453" lon="6.52687">
        <ele>1861</ele>
        <time>2022-05-01T07:48:56Z</time>
      </trkpt>
      <trkpt lat="45.96466" lon="6.52705">
        <ele>1861</ele>
        <time>2022-05-01T07:49:21Z</time>
      </trkpt>
      <trkpt lat="45.96468" lon="6.52716">
        <ele>1862</ele>
        <time>2022-05-01T07:49:27Z</time>
      </trkpt>
      <trkpt lat="45.9647" lon="6.52733">
        <ele>1865</ele>
        <time>2022-05-01T07:49:46Z</time>
      </trkpt>
      <trkpt lat="45.96475" lon="6.52743">
        <ele>1866</ele>
        <time>2022-05-01T07:49:51Z</time>
      </trkpt>
      <trkpt lat="45.96472" lon="6.52781">
        <ele>1866</ele>
        <time>2022-05-01T07:50:07Z</time>
      </trkpt>
      <trkpt lat="45.96473" lon="6.52799">
        <ele>1866</ele>
        <time>2022-05-01T07:50:20Z</time>
      </trkpt>
      <trkpt lat="45.96467" lon="6.52814">
        <ele>1866</ele>
        <time>2022-05-01T07:50:30Z</time>
      </trkpt>
      <trkpt lat="45.96465" lon="6.52822">
        <ele>1865</ele>
        <time>2022-05-01T07:50:37Z</time>
      </trkpt>
      <trkpt lat="45.96451" lon="6.52833">
        <ele>1866</ele>
        <time>2022-05-01T07:51:01Z</time>
      </trkpt>
      <trkpt lat="45.96446" lon="6.52835">
        <ele>1866</ele>
        <time>2022-05-01T07:51:05Z</time>
      </trkpt>
      <trkpt lat="45.96441" lon="6.52839">
        <ele>1867</ele>
        <time>2022-05-01T07:51:12Z</time>
      </trkpt>
      <trkpt lat="45.96439" lon="6.52846">
        <ele>1867</ele>
        <time>2022-05-01T07:51:23Z</time>
      </trkpt>
      <trkpt lat="45.96432" lon="6.52858">
        <ele>1868</ele>
        <time>2022-05-01T07:51:39Z</time>
      </trkpt>
      <trkpt lat="45.9643" lon="6.52863">
        <ele>1869</ele>
        <time>2022-05-01T07:51:45Z</time>
      </trkpt>
      <trkpt lat="45.96426" lon="6.52869">
        <ele>1870</ele>
        <time>2022-05-01T07:52:03Z</time>
      </trkpt>
      <trkpt lat="45.9642" lon="6.52875">
        <ele>1874</ele>
        <time>2022-05-01T07:59:55Z</time>
      </trkpt>
      <trkpt lat="45.96408" lon="6.52891">
        <ele>1875</ele>
        <time>2022-05-01T08:00:16Z</time>
      </trkpt>
      <trkpt lat="45.96405" lon="6.529">
        <ele>1876</ele>
        <time>2022-05-01T08:00:26Z</time>
      </trkpt>
      <trkpt lat="45.964" lon="6.52907">
        <ele>1876</ele>
        <time>2022-05-01T08:00:41Z</time>
      </trkpt>
      <trkpt lat="45.96395" lon="6.52923">
        <ele>1880</ele>
        <time>2022-05-01T08:01:12Z</time>
      </trkpt>
      <trkpt lat="45.96389" lon="6.52928">
        <ele>1881</ele>
        <time>2022-05-01T08:02:05Z</time>
      </trkpt>
      <trkpt lat="45.96383" lon="6.52934">
        <ele>1882</ele>
        <time>2022-05-01T08:02:13Z</time>
      </trkpt>
      <trkpt lat="45.96378" lon="6.52952">
        <ele>1884</ele>
        <time>2022-05-01T08:02:36Z</time>
      </trkpt>
      <trkpt lat="45.96379" lon="6.5296">
        <ele>1885</ele>
        <time>2022-05-01T08:02:48Z</time>
      </trkpt>
      <trkpt lat="45.96377" lon="6.52967">
        <ele>1885</ele>
        <time>2022-05-01T08:02:58Z</time>
      </trkpt>
      <trkpt lat="45.96375" lon="6.52975">
        <ele>1885</ele>
        <time>2022-05-01T08:03:15Z</time>
      </trkpt>
      <trkpt lat="45.96375" lon="6.52986">
        <ele>1883</ele>
        <time>2022-05-01T08:03:36Z</time>
      </trkpt>
      <trkpt lat="45.96378" lon="6.52993">
        <ele>1881</ele>
        <time>2022-05-01T08:03:51Z</time>
      </trkpt>
      <trkpt lat="45.9638" lon="6.53002">
        <ele>1880</ele>
        <time>2022-05-01T08:04:01Z</time>
      </trkpt>
      <trkpt lat="45.96382" lon="6.5301">
        <ele>1880</ele>
        <time>2022-05-01T08:04:21Z</time>
      </trkpt>
      <trkpt lat="45.96377" lon="6.53017">
        <ele>1881</ele>
        <time>2022-05-01T08:04:53Z</time>
      </trkpt>
      <trkpt lat="45.96379" lon="6.53027">
        <ele>1880</ele>
        <time>2022-05-01T08:05:11Z</time>
      </trkpt>
      <trkpt lat="45.96378" lon="6.53035">
        <ele>1881</ele>
        <time>2022-05-01T08:05:28Z</time>
      </trkpt>
      <trkpt lat="45.96375" lon="6.53041">
        <ele>1882</ele>
        <time>2022-05-01T08:05:46Z</time>
      </trkpt>
      <trkpt lat="45.96374" lon="6.53051">
        <ele>1883</ele>
        <time>2022-05-01T08:06:00Z</time>
      </trkpt>
      <trkpt lat="45.96374" lon="6.53073">
        <ele>1885</ele>
        <time>2022-05-01T08:06:29Z</time>
      </trkpt>
      <trkpt lat="45.96368" lon="6.53091">
        <ele>1885</ele>
        <time>2022-05-01T08:06:56Z</time>
      </trkpt>
      <trkpt lat="45.9636" lon="6.5312">
        <ele>1883</ele>
        <time>2022-05-01T08:07:33Z</time>
      </trkpt>
      <trkpt lat="45.96361" lon="6.53131">
        <ele>1883</ele>
        <time>2022-05-01T08:08:08Z</time>
      </trkpt>
      <trkpt lat="45.9636" lon="6.53148">
        <ele>1886</ele>
        <time>2022-05-01T08:08:33Z</time>
      </trkpt>
      <trkpt lat="45.96359" lon="6.53155">
        <ele>1889</ele>
        <time>2022-05-01T08:08:47Z</time>
      </trkpt>
      <trkpt lat="45.96358" lon="6.53164">
        <ele>1890</ele>
        <time>2022-05-01T08:08:56Z</time>
      </trkpt>
      <trkpt lat="45.96356" lon="6.53172">
        <ele>1893</ele>
        <time>2022-05-01T08:09:05Z</time>
      </trkpt>
      <trkpt lat="45.96352" lon="6.53183">
        <ele>1895</ele>
        <time>2022-05-01T08:09:21Z</time>
      </trkpt>
      <trkpt lat="45.96353" lon="6.53191">
        <ele>1899</ele>
        <time>2022-05-01T08:09:32Z</time>
      </trkpt>
      <trkpt lat="45.96356" lon="6.53199">
        <ele>1899</ele>
        <time>2022-05-01T08:09:44Z</time>
      </trkpt>
      <trkpt lat="45.96356" lon="6.53207">
        <ele>1900</ele>
        <time>2022-05-01T08:10:05Z</time>
      </trkpt>
      <trkpt lat="45.96354" lon="6.53213">
        <ele>1901</ele>
        <time>2022-05-01T08:10:11Z</time>
      </trkpt>
      <trkpt lat="45.96352" lon="6.53221">
        <ele>1902</ele>
        <time>2022-05-01T08:10:22Z</time>
      </trkpt>
      <trkpt lat="45.96352" lon="6.53227">
        <ele>1904</ele>
        <time>2022-05-01T08:10:30Z</time>
      </trkpt>
      <trkpt lat="45.96353" lon="6.53233">
        <ele>1905</ele>
        <time>2022-05-01T08:10:41Z</time>
      </trkpt>
      <trkpt lat="45.96356" lon="6.5324">
        <ele>1906</ele>
        <time>2022-05-01T08:10:53Z</time>
      </trkpt>
      <trkpt lat="45.96353" lon="6.53244">
        <ele>1908</ele>
        <time>2022-05-01T08:10:58Z</time>
      </trkpt>
      <trkpt lat="45.96352" lon="6.5325">
        <ele>1908</ele>
        <time>2022-05-01T08:11:04Z</time>
      </trkpt>
      <trkpt lat="45.96351" lon="6.53258">
        <ele>1909</ele>
        <time>2022-05-01T08:11:10Z</time>
      </trkpt>
      <trkpt lat="45.96352" lon="6.53263">
        <ele>1909</ele>
        <time>2022-05-01T08:11:19Z</time>
      </trkpt>
      <trkpt lat="45.96354" lon="6.53273">
        <ele>1909</ele>
        <time>2022-05-01T08:11:34Z</time>
      </trkpt>
      <trkpt lat="45.96357" lon="6.53279">
        <ele>1910</ele>
        <time>2022-05-01T08:11:42Z</time>
      </trkpt>
      <trkpt lat="45.96357" lon="6.53285">
        <ele>1910</ele>
        <time>2022-05-01T08:11:49Z</time>
      </trkpt>
      <trkpt lat="45.96359" lon="6.53293">
        <ele>1911</ele>
        <time>2022-05-01T08:12:04Z</time>
      </trkpt>
      <trkpt lat="45.9636" lon="6.53301">
        <ele>1914</ele>
        <time>2022-05-01T08:12:22Z</time>
      </trkpt>
      <trkpt lat="45.96362" lon="6.53308">
        <ele>1914</ele>
        <time>2022-05-01T08:12:33Z</time>
      </trkpt>
      <trkpt lat="45.9637" lon="6.53319">
        <ele>1916</ele>
        <time>2022-05-01T08:13:03Z</time>
      </trkpt>
      <trkpt lat="45.96381" lon="6.53331">
        <ele>1916</ele>
        <time>2022-05-01T08:13:26Z</time>
      </trkpt>
      <trkpt lat="45.96385" lon="6.53337">
        <ele>1916</ele>
        <time>2022-05-01T08:13:39Z</time>
      </trkpt>
      <trkpt lat="45.96385" lon="6.53347">
        <ele>1917</ele>
        <time>2022-05-01T08:13:55Z</time>
      </trkpt>
      <trkpt lat="45.96387" lon="6.53357">
        <ele>1919</ele>
        <time>2022-05-01T08:14:09Z</time>
      </trkpt>
      <trkpt lat="45.96388" lon="6.53366">
        <ele>1920</ele>
        <time>2022-05-01T08:14:26Z</time>
      </trkpt>
      <trkpt lat="45.96379" lon="6.53375">
        <ele>1926</ele>
        <time>2022-05-01T08:15:30Z</time>
      </trkpt>
      <trkpt lat="45.96374" lon="6.53379">
        <ele>1928</ele>
        <time>2022-05-01T08:15:42Z</time>
      </trkpt>
      <trkpt lat="45.96373" lon="6.53389">
        <ele>1930</ele>
        <time>2022-05-01T08:15:54Z</time>
      </trkpt>
      <trkpt lat="45.96372" lon="6.53398">
        <ele>1932</ele>
        <time>2022-05-01T08:16:03Z</time>
      </trkpt>
      <trkpt lat="45.96374" lon="6.53406">
        <ele>1933</ele>
        <time>2022-05-01T08:16:12Z</time>
      </trkpt>
      <trkpt lat="45.96377" lon="6.53413">
        <ele>1933</ele>
        <time>2022-05-01T08:16:26Z</time>
      </trkpt>
      <trkpt lat="45.96381" lon="6.53419">
        <ele>1933</ele>
        <time>2022-05-01T08:16:34Z</time>
      </trkpt>
      <trkpt lat="45.96384" lon="6.53429">
        <ele>1933</ele>
        <time>2022-05-01T08:18:57Z</time>
      </trkpt>
      <trkpt lat="45.96391" lon="6.53432">
        <ele>1933</ele>
        <time>2022-05-01T08:19:10Z</time>
      </trkpt>
      <trkpt lat="45.96394" lon="6.53442">
        <ele>1932</ele>
        <time>2022-05-01T08:19:25Z</time>
      </trkpt>
      <trkpt lat="45.96406" lon="6.5345">
        <ele>1932</ele>
        <time>2022-05-01T08:19:57Z</time>
      </trkpt>
      <trkpt lat="45.96407" lon="6.53458">
        <ele>1932</ele>
        <time>2022-05-01T08:20:24Z</time>
      </trkpt>
      <trkpt lat="45.9641" lon="6.53467">
        <ele>1932</ele>
        <time>2022-05-01T08:20:48Z</time>
      </trkpt>
      <trkpt lat="45.96414" lon="6.53477">
        <ele>1932</ele>
        <time>2022-05-01T08:20:58Z</time>
      </trkpt>
      <trkpt lat="45.96418" lon="6.53483">
        <ele>1932</ele>
        <time>2022-05-01T08:21:06Z</time>
      </trkpt>
      <trkpt lat="45.96423" lon="6.53488">
        <ele>1933</ele>
        <time>2022-05-01T08:21:15Z</time>
      </trkpt>
      <trkpt lat="45.96424" lon="6.53496">
        <ele>1934</ele>
        <time>2022-05-01T08:21:27Z</time>
      </trkpt>
      <trkpt lat="45.9643" lon="6.53503">
        <ele>1934</ele>
        <time>2022-05-01T08:21:39Z</time>
      </trkpt>
      <trkpt lat="45.96435" lon="6.53506">
        <ele>1934</ele>
        <time>2022-05-01T08:21:52Z</time>
      </trkpt>
      <trkpt lat="45.9644" lon="6.53511">
        <ele>1935</ele>
        <time>2022-05-01T08:22:08Z</time>
      </trkpt>
      <trkpt lat="45.96445" lon="6.53516">
        <ele>1936</ele>
        <time>2022-05-01T08:22:21Z</time>
      </trkpt>
      <trkpt lat="45.9645" lon="6.5353">
        <ele>1938</ele>
        <time>2022-05-01T08:22:52Z</time>
      </trkpt>
      <trkpt lat="45.96451" lon="6.53537">
        <ele>1938</ele>
        <time>2022-05-01T08:23:06Z</time>
      </trkpt>
      <trkpt lat="45.96454" lon="6.53544">
        <ele>1939</ele>
        <time>2022-05-01T08:23:31Z</time>
      </trkpt>
      <trkpt lat="45.9646" lon="6.53546">
        <ele>1941</ele>
        <time>2022-05-01T08:24:00Z</time>
      </trkpt>
      <trkpt lat="45.96464" lon="6.53553">
        <ele>1942</ele>
        <time>2022-05-01T08:24:14Z</time>
      </trkpt>
      <trkpt lat="45.96467" lon="6.5356">
        <ele>1944</ele>
        <time>2022-05-01T08:24:43Z</time>
      </trkpt>
      <trkpt lat="45.96471" lon="6.53568">
        <ele>1944</ele>
        <time>2022-05-01T08:25:12Z</time>
      </trkpt>
      <trkpt lat="45.96472" lon="6.53576">
        <ele>1944</ele>
        <time>2022-05-01T08:25:33Z</time>
      </trkpt>
      <trkpt lat="45.9647" lon="6.53584">
        <ele>1945</ele>
        <time>2022-05-01T08:25:50Z</time>
      </trkpt>
      <trkpt lat="45.96471" lon="6.53591">
        <ele>1948</ele>
        <time>2022-05-01T08:25:59Z</time>
      </trkpt>
      <trkpt lat="45.96472" lon="6.53601">
        <ele>1948</ele>
        <time>2022-05-01T08:26:15Z</time>
      </trkpt>
      <trkpt lat="45.96469" lon="6.53609">
        <ele>1950</ele>
        <time>2022-05-01T08:26:37Z</time>
      </trkpt>
      <trkpt lat="45.96463" lon="6.53611">
        <ele>1951</ele>
        <time>2022-05-01T08:26:48Z</time>
      </trkpt>
      <trkpt lat="45.96461" lon="6.53618">
        <ele>1952</ele>
        <time>2022-05-01T08:26:54Z</time>
      </trkpt>
      <trkpt lat="45.96459" lon="6.53623">
        <ele>1952</ele>
        <time>2022-05-01T08:27:01Z</time>
      </trkpt>
      <trkpt lat="45.96456" lon="6.53633">
        <ele>1953</ele>
        <time>2022-05-01T08:27:10Z</time>
      </trkpt>
      <trkpt lat="45.96455" lon="6.5364">
        <ele>1953</ele>
        <time>2022-05-01T08:27:38Z</time>
      </trkpt>
      <trkpt lat="45.96451" lon="6.53643">
        <ele>1953</ele>
        <time>2022-05-01T08:27:45Z</time>
      </trkpt>
      <trkpt lat="45.96446" lon="6.53646">
        <ele>1953</ele>
        <time>2022-05-01T08:27:54Z</time>
      </trkpt>
      <trkpt lat="45.96441" lon="6.53649">
        <ele>1956</ele>
        <time>2022-05-01T08:28:02Z</time>
      </trkpt>
      <trkpt lat="45.9642" lon="6.53676">
        <ele>1961</ele>
        <time>2022-05-01T08:28:35Z</time>
      </trkpt>
      <trkpt lat="45.96416" lon="6.53681">
        <ele>1960</ele>
        <time>2022-05-01T08:28:39Z</time>
      </trkpt>
      <trkpt lat="45.96413" lon="6.53703">
        <ele>1958</ele>
        <time>2022-05-01T08:29:06Z</time>
      </trkpt>
      <trkpt lat="45.96408" lon="6.53708">
        <ele>1955</ele>
        <time>2022-05-01T08:30:14Z</time>
      </trkpt>
      <trkpt lat="45.96404" lon="6.53713">
        <ele>1949</ele>
        <time>2022-05-01T08:30:22Z</time>
      </trkpt>
      <trkpt lat="45.964" lon="6.53721">
        <ele>1947</ele>
        <time>2022-05-01T08:30:27Z</time>
      </trkpt>
      <trkpt lat="45.96401" lon="6.53731">
        <ele>1946</ele>
        <time>2022-05-01T08:30:44Z</time>
      </trkpt>
      <trkpt lat="45.964" lon="6.53741">
        <ele>1946</ele>
        <time>2022-05-01T08:31:34Z</time>
      </trkpt>
      <trkpt lat="45.96393" lon="6.53746">
        <ele>1942</ele>
        <time>2022-05-01T08:32:05Z</time>
      </trkpt>
      <trkpt lat="45.96389" lon="6.53751">
        <ele>1941</ele>
        <time>2022-05-01T08:32:15Z</time>
      </trkpt>
      <trkpt lat="45.96383" lon="6.53768">
        <ele>1937</ele>
        <time>2022-05-01T08:32:30Z</time>
      </trkpt>
      <trkpt lat="45.9638" lon="6.53787">
        <ele>1935</ele>
        <time>2022-05-01T08:32:43Z</time>
      </trkpt>
      <trkpt lat="45.96377" lon="6.53796">
        <ele>1934</ele>
        <time>2022-05-01T08:32:52Z</time>
      </trkpt>
      <trkpt lat="45.96374" lon="6.538">
        <ele>1932</ele>
        <time>2022-05-01T08:33:34Z</time>
      </trkpt>
      <trkpt lat="45.96368" lon="6.53793">
        <ele>1931</ele>
        <time>2022-05-01T08:34:06Z</time>
      </trkpt>
      <trkpt lat="45.96362" lon="6.53798">
        <ele>1931</ele>
        <time>2022-05-01T08:34:15Z</time>
      </trkpt>
      <trkpt lat="45.96349" lon="6.53813">
        <ele>1927</ele>
        <time>2022-05-01T08:34:36Z</time>
      </trkpt>
      <trkpt lat="45.96343" lon="6.53814">
        <ele>1926</ele>
        <time>2022-05-01T08:34:42Z</time>
      </trkpt>
      <trkpt lat="45.96339" lon="6.53819">
        <ele>1926</ele>
        <time>2022-05-01T08:34:49Z</time>
      </trkpt>
      <trkpt lat="45.96334" lon="6.53826">
        <ele>1924</ele>
        <time>2022-05-01T08:34:58Z</time>
      </trkpt>
      <trkpt lat="45.9633" lon="6.53832">
        <ele>1921</ele>
        <time>2022-05-01T08:35:08Z</time>
      </trkpt>
      <trkpt lat="45.96325" lon="6.53836">
        <ele>1920</ele>
        <time>2022-05-01T08:35:19Z</time>
      </trkpt>
      <trkpt lat="45.96321" lon="6.53832">
        <ele>1917</ele>
        <time>2022-05-01T08:36:45Z</time>
      </trkpt>
      <trkpt lat="45.96315" lon="6.53835">
        <ele>1914</ele>
        <time>2022-05-01T08:37:03Z</time>
      </trkpt>
      <trkpt lat="45.9631" lon="6.5384">
        <ele>1914</ele>
        <time>2022-05-01T08:37:12Z</time>
      </trkpt>
      <trkpt lat="45.96305" lon="6.53844">
        <ele>1913</ele>
        <time>2022-05-01T08:37:19Z</time>
      </trkpt>
      <trkpt lat="45.96295" lon="6.53849">
        <ele>1912</ele>
        <time>2022-05-01T08:37:39Z</time>
      </trkpt>
      <trkpt lat="45.96289" lon="6.5385">
        <ele>1912</ele>
        <time>2022-05-01T08:37:48Z</time>
      </trkpt>
      <trkpt lat="45.96281" lon="6.53852">
        <ele>1912</ele>
        <time>2022-05-01T08:37:56Z</time>
      </trkpt>
      <trkpt lat="45.96276" lon="6.53854">
        <ele>1911</ele>
        <time>2022-05-01T08:38:07Z</time>
      </trkpt>
      <trkpt lat="45.96265" lon="6.53859">
        <ele>1910</ele>
        <time>2022-05-01T08:38:27Z</time>
      </trkpt>
      <trkpt lat="45.9626" lon="6.53859">
        <ele>1910</ele>
        <time>2022-05-01T08:38:35Z</time>
      </trkpt>
      <trkpt lat="45.96248" lon="6.53864">
        <ele>1912</ele>
        <time>2022-05-01T08:38:52Z</time>
      </trkpt>
      <trkpt lat="45.96244" lon="6.5387">
        <ele>1912</ele>
        <time>2022-05-01T08:39:06Z</time>
      </trkpt>
      <trkpt lat="45.96238" lon="6.53873">
        <ele>1912</ele>
        <time>2022-05-01T08:39:16Z</time>
      </trkpt>
      <trkpt lat="45.96232" lon="6.53871">
        <ele>1912</ele>
        <time>2022-05-01T08:39:24Z</time>
      </trkpt>
      <trkpt lat="45.96227" lon="6.53868">
        <ele>1912</ele>
        <time>2022-05-01T08:39:30Z</time>
      </trkpt>
      <trkpt lat="45.96221" lon="6.53865">
        <ele>1912</ele>
        <time>2022-05-01T08:39:40Z</time>
      </trkpt>
      <trkpt lat="45.96216" lon="6.53869">
        <ele>1911</ele>
        <time>2022-05-01T08:39:58Z</time>
      </trkpt>
      <trkpt lat="45.96213" lon="6.53879">
        <ele>1911</ele>
        <time>2022-05-01T08:40:10Z</time>
      </trkpt>
      <trkpt lat="45.96218" lon="6.53888">
        <ele>1911</ele>
        <time>2022-05-01T08:40:22Z</time>
      </trkpt>
      <trkpt lat="45.96224" lon="6.53892">
        <ele>1911</ele>
        <time>2022-05-01T08:40:38Z</time>
      </trkpt>
      <trkpt lat="45.96229" lon="6.539">
        <ele>1911</ele>
        <time>2022-05-01T08:40:44Z</time>
      </trkpt>
      <trkpt lat="45.96232" lon="6.53909">
        <ele>1913</ele>
        <time>2022-05-01T08:40:53Z</time>
      </trkpt>
      <trkpt lat="45.96236" lon="6.53916">
        <ele>1914</ele>
        <time>2022-05-01T08:40:58Z</time>
      </trkpt>
      <trkpt lat="45.96235" lon="6.53928">
        <ele>1914</ele>
        <time>2022-05-01T08:41:12Z</time>
      </trkpt>
      <trkpt lat="45.96232" lon="6.53944">
        <ele>1917</ele>
        <time>2022-05-01T08:41:32Z</time>
      </trkpt>
      <trkpt lat="45.9622" lon="6.5395">
        <ele>1918</ele>
        <time>2022-05-01T08:41:52Z</time>
      </trkpt>
      <trkpt lat="45.96194" lon="6.53927">
        <ele>1921</ele>
        <time>2022-05-01T08:42:24Z</time>
      </trkpt>
      <trkpt lat="45.9619" lon="6.53923">
        <ele>1922</ele>
        <time>2022-05-01T08:42:32Z</time>
      </trkpt>
      <trkpt lat="45.96184" lon="6.5392">
        <ele>1923</ele>
        <time>2022-05-01T08:42:40Z</time>
      </trkpt>
      <trkpt lat="45.96179" lon="6.53916">
        <ele>1924</ele>
        <time>2022-05-01T08:42:52Z</time>
      </trkpt>
      <trkpt lat="45.96163" lon="6.53912">
        <ele>1924</ele>
        <time>2022-05-01T08:43:21Z</time>
      </trkpt>
      <trkpt lat="45.96152" lon="6.539">
        <ele>1926</ele>
        <time>2022-05-01T08:43:49Z</time>
      </trkpt>
      <trkpt lat="45.96141" lon="6.53903">
        <ele>1925</ele>
        <time>2022-05-01T08:44:09Z</time>
      </trkpt>
      <trkpt lat="45.96138" lon="6.5391">
        <ele>1924</ele>
        <time>2022-05-01T08:44:16Z</time>
      </trkpt>
      <trkpt lat="45.96138" lon="6.53921">
        <ele>1923</ele>
        <time>2022-05-01T08:44:30Z</time>
      </trkpt>
      <trkpt lat="45.96139" lon="6.5393">
        <ele>1922</ele>
        <time>2022-05-01T08:44:42Z</time>
      </trkpt>
      <trkpt lat="45.96138" lon="6.53941">
        <ele>1923</ele>
        <time>2022-05-01T08:44:49Z</time>
      </trkpt>
      <trkpt lat="45.96151" lon="6.53953">
        <ele>1925</ele>
        <time>2022-05-01T08:45:13Z</time>
      </trkpt>
      <trkpt lat="45.96158" lon="6.53956">
        <ele>1925</ele>
        <time>2022-05-01T08:45:20Z</time>
      </trkpt>
      <trkpt lat="45.9617" lon="6.53969">
        <ele>1927</ele>
        <time>2022-05-01T08:45:42Z</time>
      </trkpt>
      <trkpt lat="45.96177" lon="6.53975">
        <ele>1929</ele>
        <time>2022-05-01T08:45:54Z</time>
      </trkpt>
      <trkpt lat="45.96184" lon="6.5398">
        <ele>1929</ele>
        <time>2022-05-01T08:46:01Z</time>
      </trkpt>
      <trkpt lat="45.96187" lon="6.5399">
        <ele>1929</ele>
        <time>2022-05-01T08:46:17Z</time>
      </trkpt>
      <trkpt lat="45.96201" lon="6.54007">
        <ele>1931</ele>
        <time>2022-05-01T08:46:47Z</time>
      </trkpt>
      <trkpt lat="45.96205" lon="6.54006">
        <ele>1934</ele>
        <time>2022-05-01T08:47:27Z</time>
      </trkpt>
      <trkpt lat="45.96209" lon="6.53996">
        <ele>1936</ele>
        <time>2022-05-01T08:47:54Z</time>
      </trkpt>
      <trkpt lat="45.96216" lon="6.54004">
        <ele>1938</ele>
        <time>2022-05-01T08:48:44Z</time>
      </trkpt>
      <trkpt lat="45.96221" lon="6.54014">
        <ele>1936</ele>
        <time>2022-05-01T08:48:54Z</time>
      </trkpt>
      <trkpt lat="45.96229" lon="6.54025">
        <ele>1935</ele>
        <time>2022-05-01T08:49:08Z</time>
      </trkpt>
      <trkpt lat="45.96232" lon="6.54035">
        <ele>1936</ele>
        <time>2022-05-01T08:49:23Z</time>
      </trkpt>
      <trkpt lat="45.96234" lon="6.54046">
        <ele>1937</ele>
        <time>2022-05-01T08:49:34Z</time>
      </trkpt>
      <trkpt lat="45.96225" lon="6.5406">
        <ele>1942</ele>
        <time>2022-05-01T08:51:21Z</time>
      </trkpt>
      <trkpt lat="45.96218" lon="6.54063">
        <ele>1942</ele>
        <time>2022-05-01T08:51:45Z</time>
      </trkpt>
      <trkpt lat="45.96223" lon="6.54072">
        <ele>1945</ele>
        <time>2022-05-01T08:52:38Z</time>
      </trkpt>
      <trkpt lat="45.96229" lon="6.54078">
        <ele>1946</ele>
        <time>2022-05-01T08:52:55Z</time>
      </trkpt>
      <trkpt lat="45.96237" lon="6.54081">
        <ele>1952</ele>
        <time>2022-05-01T08:53:09Z</time>
      </trkpt>
      <trkpt lat="45.96244" lon="6.54079">
        <ele>1953</ele>
        <time>2022-05-01T08:53:18Z</time>
      </trkpt>
      <trkpt lat="45.96248" lon="6.54087">
        <ele>1962</ele>
        <time>2022-05-01T08:54:43Z</time>
      </trkpt>
      <trkpt lat="45.96245" lon="6.54094">
        <ele>1964</ele>
        <time>2022-05-01T08:54:53Z</time>
      </trkpt>
      <trkpt lat="45.96252" lon="6.54099">
        <ele>1966</ele>
        <time>2022-05-01T08:55:13Z</time>
      </trkpt>
      <trkpt lat="45.96249" lon="6.54106">
        <ele>1968</ele>
        <time>2022-05-01T08:55:39Z</time>
      </trkpt>
      <trkpt lat="45.96243" lon="6.54106">
        <ele>1969</ele>
        <time>2022-05-01T08:56:00Z</time>
      </trkpt>
      <trkpt lat="45.96243" lon="6.54117">
        <ele>1974</ele>
        <time>2022-05-01T08:57:14Z</time>
      </trkpt>
      <trkpt lat="45.96252" lon="6.5412">
        <ele>1974</ele>
        <time>2022-05-01T08:57:40Z</time>
      </trkpt>
      <trkpt lat="45.96249" lon="6.5413">
        <ele>1979</ele>
        <time>2022-05-01T08:58:09Z</time>
      </trkpt>
      <trkpt lat="45.96256" lon="6.54133">
        <ele>1988</ele>
        <time>2022-05-01T08:58:49Z</time>
      </trkpt>
      <trkpt lat="45.96257" lon="6.54142">
        <ele>1992</ele>
        <time>2022-05-01T08:59:35Z</time>
      </trkpt>
      <trkpt lat="45.96252" lon="6.54146">
        <ele>1992</ele>
        <time>2022-05-01T08:59:45Z</time>
      </trkpt>
      <trkpt lat="45.9624" lon="6.54149">
        <ele>1993</ele>
        <time>2022-05-01T09:00:14Z</time>
      </trkpt>
      <trkpt lat="45.96234" lon="6.5415">
        <ele>1994</ele>
        <time>2022-05-01T09:00:27Z</time>
      </trkpt>
      <trkpt lat="45.9623" lon="6.54156">
        <ele>1995</ele>
        <time>2022-05-01T09:01:09Z</time>
      </trkpt>
      <trkpt lat="45.96223" lon="6.54157">
        <ele>1996</ele>
        <time>2022-05-01T09:05:43Z</time>
      </trkpt>
      <trkpt lat="45.96216" lon="6.54159">
        <ele>1993</ele>
        <time>2022-05-01T09:05:57Z</time>
      </trkpt>
      <trkpt lat="45.9622" lon="6.54168">
        <ele>1994</ele>
        <time>2022-05-01T09:06:12Z</time>
      </trkpt>
      <trkpt lat="45.96224" lon="6.5418">
        <ele>1998</ele>
        <time>2022-05-01T09:06:47Z</time>
      </trkpt>
      <trkpt lat="45.96209" lon="6.54184">
        <ele>1999</ele>
        <time>2022-05-01T09:07:21Z</time>
      </trkpt>
      <trkpt lat="45.96203" lon="6.54184">
        <ele>2001</ele>
        <time>2022-05-01T09:07:40Z</time>
      </trkpt>
      <trkpt lat="45.9619" lon="6.54178">
        <ele>2001</ele>
        <time>2022-05-01T09:08:05Z</time>
      </trkpt>
      <trkpt lat="45.96183" lon="6.54179">
        <ele>2003</ele>
        <time>2022-05-01T09:08:43Z</time>
      </trkpt>
      <trkpt lat="45.96175" lon="6.5418">
        <ele>2010</ele>
        <time>2022-05-01T09:09:03Z</time>
      </trkpt>
      <trkpt lat="45.96168" lon="6.5418">
        <ele>2013</ele>
        <time>2022-05-01T09:09:21Z</time>
      </trkpt>
      <trkpt lat="45.9616" lon="6.5418">
        <ele>2019</ele>
        <time>2022-05-01T09:09:38Z</time>
      </trkpt>
      <trkpt lat="45.96154" lon="6.54181">
        <ele>2021</ele>
        <time>2022-05-01T09:11:14Z</time>
      </trkpt>
      <trkpt lat="45.96147" lon="6.54183">
        <ele>2023</ele>
        <time>2022-05-01T09:11:37Z</time>
      </trkpt>
      <trkpt lat="45.96125" lon="6.54181">
        <ele>2029</ele>
        <time>2022-05-01T09:12:09Z</time>
      </trkpt>
      <trkpt lat="45.96118" lon="6.54179">
        <ele>2030</ele>
        <time>2022-05-01T09:12:27Z</time>
      </trkpt>
      <trkpt lat="45.96112" lon="6.5418">
        <ele>2031</ele>
        <time>2022-05-01T09:12:33Z</time>
      </trkpt>
      <trkpt lat="45.96104" lon="6.54182">
        <ele>2032</ele>
        <time>2022-05-01T09:12:44Z</time>
      </trkpt>
      <trkpt lat="45.96093" lon="6.54187">
        <ele>2034</ele>
        <time>2022-05-01T09:13:06Z</time>
      </trkpt>
      <trkpt lat="45.96088" lon="6.54191">
        <ele>2034</ele>
        <time>2022-05-01T09:13:18Z</time>
      </trkpt>
      <trkpt lat="45.96083" lon="6.54194">
        <ele>2034</ele>
        <time>2022-05-01T09:13:26Z</time>
      </trkpt>
      <trkpt lat="45.96071" lon="6.54198">
        <ele>2036</ele>
        <time>2022-05-01T09:14:04Z</time>
      </trkpt>
      <trkpt lat="45.96064" lon="6.542">
        <ele>2038</ele>
        <time>2022-05-01T09:14:14Z</time>
      </trkpt>
      <trkpt lat="45.96058" lon="6.54204">
        <ele>2038</ele>
        <time>2022-05-01T09:14:21Z</time>
      </trkpt>
      <trkpt lat="45.96052" lon="6.54207">
        <ele>2038</ele>
        <time>2022-05-01T09:14:32Z</time>
      </trkpt>
      <trkpt lat="45.96046" lon="6.54203">
        <ele>2039</ele>
        <time>2022-05-01T09:14:53Z</time>
      </trkpt>
      <trkpt lat="45.9604" lon="6.54203">
        <ele>2042</ele>
        <time>2022-05-01T09:15:06Z</time>
      </trkpt>
      <trkpt lat="45.96042" lon="6.54213">
        <ele>2046</ele>
        <time>2022-05-01T09:15:33Z</time>
      </trkpt>
      <trkpt lat="45.96057" lon="6.54231">
        <ele>2057</ele>
        <time>2022-05-01T09:16:14Z</time>
      </trkpt>
      <trkpt lat="45.96055" lon="6.54241">
        <ele>2060</ele>
        <time>2022-05-01T09:16:27Z</time>
      </trkpt>
      <trkpt lat="45.96055" lon="6.54257">
        <ele>2063</ele>
        <time>2022-05-01T09:16:48Z</time>
      </trkpt>
      <trkpt lat="45.96057" lon="6.54268">
        <ele>2068</ele>
        <time>2022-05-01T09:17:02Z</time>
      </trkpt>
      <trkpt lat="45.96061" lon="6.54279">
        <ele>2069</ele>
        <time>2022-05-01T09:17:23Z</time>
      </trkpt>
      <trkpt lat="45.96073" lon="6.54287">
        <ele>2072</ele>
        <time>2022-05-01T09:17:46Z</time>
      </trkpt>
      <trkpt lat="45.9607" lon="6.54293">
        <ele>2073</ele>
        <time>2022-05-01T09:17:56Z</time>
      </trkpt>
      <trkpt lat="45.96065" lon="6.54298">
        <ele>2073</ele>
        <time>2022-05-01T09:18:07Z</time>
      </trkpt>
      <trkpt lat="45.9606" lon="6.54303">
        <ele>2073</ele>
        <time>2022-05-01T09:18:16Z</time>
      </trkpt>
      <trkpt lat="45.96055" lon="6.54306">
        <ele>2073</ele>
        <time>2022-05-01T09:18:30Z</time>
      </trkpt>
      <trkpt lat="45.96049" lon="6.54308">
        <ele>2074</ele>
        <time>2022-05-01T09:18:46Z</time>
      </trkpt>
      <trkpt lat="45.96041" lon="6.54307">
        <ele>2074</ele>
        <time>2022-05-01T09:18:58Z</time>
      </trkpt>
      <trkpt lat="45.96035" lon="6.54314">
        <ele>2074</ele>
        <time>2022-05-01T09:19:20Z</time>
      </trkpt>
      <trkpt lat="45.96022" lon="6.54316">
        <ele>2076</ele>
        <time>2022-05-01T09:19:49Z</time>
      </trkpt>
      <trkpt lat="45.96006" lon="6.54322">
        <ele>2084</ele>
        <time>2022-05-01T09:20:24Z</time>
      </trkpt>
      <trkpt lat="45.96001" lon="6.54324">
        <ele>2085</ele>
        <time>2022-05-01T09:20:35Z</time>
      </trkpt>
      <trkpt lat="45.95993" lon="6.54327">
        <ele>2088</ele>
        <time>2022-05-01T09:20:51Z</time>
      </trkpt>
      <trkpt lat="45.95989" lon="6.54332">
        <ele>2089</ele>
        <time>2022-05-01T09:21:03Z</time>
      </trkpt>
      <trkpt lat="45.95989" lon="6.54343">
        <ele>2094</ele>
        <time>2022-05-01T09:22:03Z</time>
      </trkpt>
      <trkpt lat="45.95999" lon="6.5436">
        <ele>2103</ele>
        <time>2022-05-01T09:22:43Z</time>
      </trkpt>
      <trkpt lat="45.96003" lon="6.54366">
        <ele>2106</ele>
        <time>2022-05-01T09:22:52Z</time>
      </trkpt>
      <trkpt lat="45.96005" lon="6.54373">
        <ele>2108</ele>
        <time>2022-05-01T09:23:05Z</time>
      </trkpt>
      <trkpt lat="45.96001" lon="6.54382">
        <ele>2110</ele>
        <time>2022-05-01T09:23:25Z</time>
      </trkpt>
      <trkpt lat="45.95996" lon="6.54388">
        <ele>2113</ele>
        <time>2022-05-01T09:23:49Z</time>
      </trkpt>
      <trkpt lat="45.95991" lon="6.54392">
        <ele>2115</ele>
        <time>2022-05-01T09:24:06Z</time>
      </trkpt>
      <trkpt lat="45.9599" lon="6.54403">
        <ele>2118</ele>
        <time>2022-05-01T09:24:30Z</time>
      </trkpt>
      <trkpt lat="45.95992" lon="6.54413">
        <ele>2122</ele>
        <time>2022-05-01T09:24:56Z</time>
      </trkpt>
      <trkpt lat="45.95983" lon="6.54416">
        <ele>2127</ele>
        <time>2022-05-01T09:27:30Z</time>
      </trkpt>
      <trkpt lat="45.95984" lon="6.54427">
        <ele>2129</ele>
        <time>2022-05-01T09:28:34Z</time>
      </trkpt>
      <trkpt lat="45.95977" lon="6.54432">
        <ele>2130</ele>
        <time>2022-05-01T09:28:52Z</time>
      </trkpt>
      <trkpt lat="45.95978" lon="6.54444">
        <ele>2131</ele>
        <time>2022-05-01T09:29:20Z</time>
      </trkpt>
      <trkpt lat="45.95985" lon="6.54449">
        <ele>2132</ele>
        <time>2022-05-01T09:29:40Z</time>
      </trkpt>
      <trkpt lat="45.95991" lon="6.54456">
        <ele>2134</ele>
        <time>2022-05-01T09:29:51Z</time>
      </trkpt>
      <trkpt lat="45.95997" lon="6.54464">
        <ele>2135</ele>
        <time>2022-05-01T09:30:02Z</time>
      </trkpt>
      <trkpt lat="45.95998" lon="6.54472">
        <ele>2139</ele>
        <time>2022-05-01T09:30:20Z</time>
      </trkpt>
      <trkpt lat="45.95993" lon="6.54477">
        <ele>2139</ele>
        <time>2022-05-01T09:30:29Z</time>
      </trkpt>
      <trkpt lat="45.95985" lon="6.54488">
        <ele>2141</ele>
        <time>2022-05-01T09:30:56Z</time>
      </trkpt>
      <trkpt lat="45.95979" lon="6.54491">
        <ele>2143</ele>
        <time>2022-05-01T09:31:10Z</time>
      </trkpt>
      <trkpt lat="45.95977" lon="6.54498">
        <ele>2147</ele>
        <time>2022-05-01T09:31:33Z</time>
      </trkpt>
      <trkpt lat="45.9597" lon="6.54501">
        <ele>2147</ele>
        <time>2022-05-01T09:31:41Z</time>
      </trkpt>
      <trkpt lat="45.95963" lon="6.54498">
        <ele>2149</ele>
        <time>2022-05-01T09:31:49Z</time>
      </trkpt>
      <trkpt lat="45.95957" lon="6.54499">
        <ele>2150</ele>
        <time>2022-05-01T09:32:00Z</time>
      </trkpt>
      <trkpt lat="45.95944" lon="6.54505">
        <ele>2153</ele>
        <time>2022-05-01T09:32:23Z</time>
      </trkpt>
      <trkpt lat="45.95938" lon="6.54505">
        <ele>2153</ele>
        <time>2022-05-01T09:32:32Z</time>
      </trkpt>
      <trkpt lat="45.95932" lon="6.54508">
        <ele>2153</ele>
        <time>2022-05-01T09:32:43Z</time>
      </trkpt>
      <trkpt lat="45.95929" lon="6.54517">
        <ele>2155</ele>
        <time>2022-05-01T09:38:02Z</time>
      </trkpt>
      <trkpt lat="45.95921" lon="6.54526">
        <ele>2157</ele>
        <time>2022-05-01T09:38:18Z</time>
      </trkpt>
      <trkpt lat="45.95916" lon="6.54533">
        <ele>2160</ele>
        <time>2022-05-01T09:38:32Z</time>
      </trkpt>
      <trkpt lat="45.95917" lon="6.54544">
        <ele>2161</ele>
        <time>2022-05-01T09:38:55Z</time>
      </trkpt>
      <trkpt lat="45.95914" lon="6.54555">
        <ele>2164</ele>
        <time>2022-05-01T09:39:08Z</time>
      </trkpt>
      <trkpt lat="45.95908" lon="6.54565">
        <ele>2166</ele>
        <time>2022-05-01T09:39:23Z</time>
      </trkpt>
      <trkpt lat="45.95906" lon="6.54587">
        <ele>2171</ele>
        <time>2022-05-01T09:39:53Z</time>
      </trkpt>
      <trkpt lat="45.95908" lon="6.54595">
        <ele>2173</ele>
        <time>2022-05-01T09:40:06Z</time>
      </trkpt>
      <trkpt lat="45.9591" lon="6.54605">
        <ele>2175</ele>
        <time>2022-05-01T09:40:17Z</time>
      </trkpt>
      <trkpt lat="45.95917" lon="6.5461">
        <ele>2177</ele>
        <time>2022-05-01T09:40:33Z</time>
      </trkpt>
      <trkpt lat="45.95922" lon="6.54619">
        <ele>2180</ele>
        <time>2022-05-01T09:40:50Z</time>
      </trkpt>
      <trkpt lat="45.95925" lon="6.5463">
        <ele>2182</ele>
        <time>2022-05-01T09:41:07Z</time>
      </trkpt>
      <trkpt lat="45.95932" lon="6.54638">
        <ele>2187</ele>
        <time>2022-05-01T09:41:28Z</time>
      </trkpt>
      <trkpt lat="45.95939" lon="6.5465">
        <ele>2188</ele>
        <time>2022-05-01T09:41:46Z</time>
      </trkpt>
      <trkpt lat="45.9594" lon="6.54661">
        <ele>2190</ele>
        <time>2022-05-01T09:42:02Z</time>
      </trkpt>
      <trkpt lat="45.95942" lon="6.54669">
        <ele>2193</ele>
        <time>2022-05-01T09:42:13Z</time>
      </trkpt>
      <trkpt lat="45.95941" lon="6.54679">
        <ele>2195</ele>
        <time>2022-05-01T09:42:28Z</time>
      </trkpt>
      <trkpt lat="45.95943" lon="6.54692">
        <ele>2199</ele>
        <time>2022-05-01T09:42:45Z</time>
      </trkpt>
      <trkpt lat="45.95942" lon="6.54703">
        <ele>2200</ele>
        <time>2022-05-01T09:43:02Z</time>
      </trkpt>
      <trkpt lat="45.95938" lon="6.5471">
        <ele>2203</ele>
        <time>2022-05-01T09:43:07Z</time>
      </trkpt>
      <trkpt lat="45.95938" lon="6.54722">
        <ele>2205</ele>
        <time>2022-05-01T09:43:28Z</time>
      </trkpt>
      <trkpt lat="45.95943" lon="6.54731">
        <ele>2208</ele>
        <time>2022-05-01T09:43:42Z</time>
      </trkpt>
      <trkpt lat="45.95945" lon="6.54742">
        <ele>2210</ele>
        <time>2022-05-01T09:44:02Z</time>
      </trkpt>
      <trkpt lat="45.95944" lon="6.54754">
        <ele>2211</ele>
        <time>2022-05-01T09:44:17Z</time>
      </trkpt>
      <trkpt lat="45.95939" lon="6.5476">
        <ele>2213</ele>
        <time>2022-05-01T09:44:35Z</time>
      </trkpt>
      <trkpt lat="45.95934" lon="6.54765">
        <ele>2215</ele>
        <time>2022-05-01T09:44:46Z</time>
      </trkpt>
      <trkpt lat="45.95935" lon="6.54773">
        <ele>2216</ele>
        <time>2022-05-01T09:45:00Z</time>
      </trkpt>
      <trkpt lat="45.95939" lon="6.54783">
        <ele>2218</ele>
        <time>2022-05-01T09:45:23Z</time>
      </trkpt>
      <trkpt lat="45.95935" lon="6.54799">
        <ele>2222</ele>
        <time>2022-05-01T09:45:42Z</time>
      </trkpt>
      <trkpt lat="45.95941" lon="6.54821">
        <ele>2228</ele>
        <time>2022-05-01T09:46:21Z</time>
      </trkpt>
      <trkpt lat="45.95939" lon="6.54835">
        <ele>2230</ele>
        <time>2022-05-01T09:46:36Z</time>
      </trkpt>
      <trkpt lat="45.95938" lon="6.54847">
        <ele>2231</ele>
        <time>2022-05-01T09:46:46Z</time>
      </trkpt>
      <trkpt lat="45.95941" lon="6.54858">
        <ele>2232</ele>
        <time>2022-05-01T09:47:01Z</time>
      </trkpt>
      <trkpt lat="45.95941" lon="6.54885">
        <ele>2235</ele>
        <time>2022-05-01T09:47:27Z</time>
      </trkpt>
      <trkpt lat="45.95941" lon="6.54896">
        <ele>2236</ele>
        <time>2022-05-01T09:47:37Z</time>
      </trkpt>
      <trkpt lat="45.95946" lon="6.54904">
        <ele>2236</ele>
        <time>2022-05-01T09:47:49Z</time>
      </trkpt>
      <trkpt lat="45.95953" lon="6.54914">
        <ele>2233</ele>
        <time>2022-05-01T09:47:59Z</time>
      </trkpt>
      <trkpt lat="45.95961" lon="6.54916">
        <ele>2232</ele>
        <time>2022-05-01T09:48:17Z</time>
      </trkpt>
      <trkpt lat="45.95978" lon="6.54926">
        <ele>2234</ele>
        <time>2022-05-01T09:48:54Z</time>
      </trkpt>
      <trkpt lat="45.95986" lon="6.54936">
        <ele>2239</ele>
        <time>2022-05-01T09:49:17Z</time>
      </trkpt>
      <trkpt lat="45.95989" lon="6.54945">
        <ele>2241</ele>
        <time>2022-05-01T09:49:29Z</time>
      </trkpt>
      <trkpt lat="45.95991" lon="6.54955">
        <ele>2243</ele>
        <time>2022-05-01T09:49:46Z</time>
      </trkpt>
      <trkpt lat="45.95987" lon="6.54968">
        <ele>2246</ele>
        <time>2022-05-01T09:50:06Z</time>
      </trkpt>
      <trkpt lat="45.95996" lon="6.54979">
        <ele>2247</ele>
        <time>2022-05-01T09:50:20Z</time>
      </trkpt>
      <trkpt lat="45.96002" lon="6.54992">
        <ele>2248</ele>
        <time>2022-05-01T09:50:31Z</time>
      </trkpt>
      <trkpt lat="45.96007" lon="6.55002">
        <ele>2252</ele>
        <time>2022-05-01T09:51:01Z</time>
      </trkpt>
      <trkpt lat="45.96007" lon="6.55012">
        <ele>2254</ele>
        <time>2022-05-01T09:51:16Z</time>
      </trkpt>
      <trkpt lat="45.9601" lon="6.55023">
        <ele>2255</ele>
        <time>2022-05-01T09:51:26Z</time>
      </trkpt>
      <trkpt lat="45.96013" lon="6.55037">
        <ele>2257</ele>
        <time>2022-05-01T09:51:38Z</time>
      </trkpt>
      <trkpt lat="45.96014" lon="6.55047">
        <ele>2261</ele>
        <time>2022-05-01T09:51:55Z</time>
      </trkpt>
      <trkpt lat="45.96016" lon="6.55057">
        <ele>2261</ele>
        <time>2022-05-01T09:52:06Z</time>
      </trkpt>
      <trkpt lat="45.96015" lon="6.55065">
        <ele>2263</ele>
        <time>2022-05-01T09:52:15Z</time>
      </trkpt>
      <trkpt lat="45.96017" lon="6.55076">
        <ele>2265</ele>
        <time>2022-05-01T09:52:40Z</time>
      </trkpt>
      <trkpt lat="45.96018" lon="6.55087">
        <ele>2266</ele>
        <time>2022-05-01T09:52:46Z</time>
      </trkpt>
      <trkpt lat="45.96028" lon="6.55093">
        <ele>2266</ele>
        <time>2022-05-01T09:53:18Z</time>
      </trkpt>
      <trkpt lat="45.96038" lon="6.55104">
        <ele>2269</ele>
        <time>2022-05-01T09:53:43Z</time>
      </trkpt>
      <trkpt lat="45.96046" lon="6.55112">
        <ele>2270</ele>
        <time>2022-05-01T09:53:59Z</time>
      </trkpt>
      <trkpt lat="45.96051" lon="6.55126">
        <ele>2274</ele>
        <time>2022-05-01T09:54:23Z</time>
      </trkpt>
      <trkpt lat="45.96059" lon="6.55141">
        <ele>2281</ele>
        <time>2022-05-01T09:54:41Z</time>
      </trkpt>
      <trkpt lat="45.9606" lon="6.55151">
        <ele>2283</ele>
        <time>2022-05-01T09:54:52Z</time>
      </trkpt>
      <trkpt lat="45.96068" lon="6.55159">
        <ele>2284</ele>
        <time>2022-05-01T09:55:07Z</time>
      </trkpt>
      <trkpt lat="45.96074" lon="6.55166">
        <ele>2290</ele>
        <time>2022-05-01T09:55:45Z</time>
      </trkpt>
      <trkpt lat="45.96085" lon="6.55178">
        <ele>2290</ele>
        <time>2022-05-01T09:55:49Z</time>
      </trkpt>
      <trkpt lat="45.96092" lon="6.55197">
        <ele>2294</ele>
        <time>2022-05-01T09:56:10Z</time>
      </trkpt>
      <trkpt lat="45.96095" lon="6.55212">
        <ele>2296</ele>
        <time>2022-05-01T09:56:24Z</time>
      </trkpt>
      <trkpt lat="45.96098" lon="6.55224">
        <ele>2297</ele>
        <time>2022-05-01T09:56:45Z</time>
      </trkpt>
      <trkpt lat="45.961" lon="6.55235">
        <ele>2299</ele>
        <time>2022-05-01T09:57:06Z</time>
      </trkpt>
      <trkpt lat="45.96099" lon="6.55259">
        <ele>2303</ele>
        <time>2022-05-01T09:57:42Z</time>
      </trkpt>
      <trkpt lat="45.96093" lon="6.55278">
        <ele>2304</ele>
        <time>2022-05-01T09:58:14Z</time>
      </trkpt>
      <trkpt lat="45.96083" lon="6.55296">
        <ele>2305</ele>
        <time>2022-05-01T09:58:31Z</time>
      </trkpt>
      <trkpt lat="45.96088" lon="6.55307">
        <ele>2306</ele>
        <time>2022-05-01T09:58:51Z</time>
      </trkpt>
      <trkpt lat="45.96101" lon="6.55329">
        <ele>2307</ele>
        <time>2022-05-01T09:59:41Z</time>
      </trkpt>
      <trkpt lat="45.96107" lon="6.55343">
        <ele>2308</ele>
        <time>2022-05-01T09:59:59Z</time>
      </trkpt>
      <trkpt lat="45.96117" lon="6.55365">
        <ele>2319</ele>
        <time>2022-05-01T10:00:55Z</time>
      </trkpt>
      <trkpt lat="45.96124" lon="6.55373">
        <ele>2320</ele>
        <time>2022-05-01T10:01:21Z</time>
      </trkpt>
      <trkpt lat="45.96127" lon="6.55385">
        <ele>2326</ele>
        <time>2022-05-01T10:01:47Z</time>
      </trkpt>
      <trkpt lat="45.96128" lon="6.55397">
        <ele>2328</ele>
        <time>2022-05-01T10:02:01Z</time>
      </trkpt>
      <trkpt lat="45.96134" lon="6.55405">
        <ele>2333</ele>
        <time>2022-05-01T10:02:21Z</time>
      </trkpt>
      <trkpt lat="45.96136" lon="6.55416">
        <ele>2335</ele>
        <time>2022-05-01T10:02:38Z</time>
      </trkpt>
      <trkpt lat="45.9614" lon="6.55425">
        <ele>2338</ele>
        <time>2022-05-01T10:02:58Z</time>
      </trkpt>
      <trkpt lat="45.96145" lon="6.55434">
        <ele>2341</ele>
        <time>2022-05-01T10:03:31Z</time>
      </trkpt>
      <trkpt lat="45.96147" lon="6.55445">
        <ele>2345</ele>
        <time>2022-05-01T10:03:37Z</time>
      </trkpt>
      <trkpt lat="45.9615" lon="6.55457">
        <ele>2348</ele>
        <time>2022-05-01T10:04:00Z</time>
      </trkpt>
      <trkpt lat="45.96154" lon="6.55467">
        <ele>2351</ele>
        <time>2022-05-01T10:04:16Z</time>
      </trkpt>
      <trkpt lat="45.96159" lon="6.55475">
        <ele>2352</ele>
        <time>2022-05-01T10:04:35Z</time>
      </trkpt>
      <trkpt lat="45.96162" lon="6.55497">
        <ele>2357</ele>
        <time>2022-05-01T10:05:18Z</time>
      </trkpt>
      <trkpt lat="45.96159" lon="6.55508">
        <ele>2360</ele>
        <time>2022-05-01T10:05:36Z</time>
      </trkpt>
      <trkpt lat="45.96142" lon="6.5552">
        <ele>2365</ele>
        <time>2022-05-01T10:06:27Z</time>
      </trkpt>
      <trkpt lat="45.96135" lon="6.55524">
        <ele>2368</ele>
        <time>2022-05-01T10:06:41Z</time>
      </trkpt>
      <trkpt lat="45.96128" lon="6.55528">
        <ele>2368</ele>
        <time>2022-05-01T10:06:56Z</time>
      </trkpt>
      <trkpt lat="45.9613" lon="6.55541">
        <ele>2372</ele>
        <time>2022-05-01T10:07:27Z</time>
      </trkpt>
      <trkpt lat="45.96131" lon="6.5555">
        <ele>2374</ele>
        <time>2022-05-01T10:07:45Z</time>
      </trkpt>
      <trkpt lat="45.96133" lon="6.55563">
        <ele>2375</ele>
        <time>2022-05-01T10:08:01Z</time>
      </trkpt>
      <trkpt lat="45.96132" lon="6.55583">
        <ele>2378</ele>
        <time>2022-05-01T10:08:28Z</time>
      </trkpt>
      <trkpt lat="45.96133" lon="6.55595">
        <ele>2380</ele>
        <time>2022-05-01T10:08:41Z</time>
      </trkpt>
      <trkpt lat="45.96132" lon="6.55604">
        <ele>2382</ele>
        <time>2022-05-01T10:09:14Z</time>
      </trkpt>
      <trkpt lat="45.9613" lon="6.55615">
        <ele>2383</ele>
        <time>2022-05-01T10:09:52Z</time>
      </trkpt>
      <trkpt lat="45.96131" lon="6.55627">
        <ele>2386</ele>
        <time>2022-05-01T10:10:22Z</time>
      </trkpt>
      <trkpt lat="45.96126" lon="6.55643">
        <ele>2388</ele>
        <time>2022-05-01T10:10:36Z</time>
      </trkpt>
      <trkpt lat="45.96123" lon="6.55663">
        <ele>2389</ele>
        <time>2022-05-01T10:10:49Z</time>
      </trkpt>
      <trkpt lat="45.96126" lon="6.55677">
        <ele>2389</ele>
        <time>2022-05-01T10:11:15Z</time>
      </trkpt>
      <trkpt lat="45.9613" lon="6.55692">
        <ele>2390</ele>
        <time>2022-05-01T10:11:43Z</time>
      </trkpt>
      <trkpt lat="45.96128" lon="6.55708">
        <ele>2391</ele>
        <time>2022-05-01T10:12:06Z</time>
      </trkpt>
      <trkpt lat="45.96123" lon="6.55721">
        <ele>2392</ele>
        <time>2022-05-01T10:12:22Z</time>
      </trkpt>
      <trkpt lat="45.96122" lon="6.55735">
        <ele>2394</ele>
        <time>2022-05-01T10:12:48Z</time>
      </trkpt>
      <trkpt lat="45.96124" lon="6.55746">
        <ele>2395</ele>
        <time>2022-05-01T10:13:13Z</time>
      </trkpt>
      <trkpt lat="45.96125" lon="6.55757">
        <ele>2398</ele>
        <time>2022-05-01T10:13:58Z</time>
      </trkpt>
      <trkpt lat="45.9612" lon="6.55766">
        <ele>2401</ele>
        <time>2022-05-01T10:14:35Z</time>
      </trkpt>
      <trkpt lat="45.96115" lon="6.55778">
        <ele>2404</ele>
        <time>2022-05-01T10:14:57Z</time>
      </trkpt>
      <trkpt lat="45.96111" lon="6.55789">
        <ele>2409</ele>
        <time>2022-05-01T10:15:53Z</time>
      </trkpt>
      <trkpt lat="45.96106" lon="6.55785">
        <ele>2410</ele>
        <time>2022-05-01T10:16:23Z</time>
      </trkpt>
      <trkpt lat="45.96098" lon="6.55786">
        <ele>2420</ele>
        <time>2022-05-01T10:16:43Z</time>
      </trkpt>
      <trkpt lat="45.96093" lon="6.55788">
        <ele>2423</ele>
        <time>2022-05-01T10:17:01Z</time>
      </trkpt>
      <trkpt lat="45.96094" lon="6.55787">
        <ele>2435</ele>
        <time>2022-05-01T10:18:26Z</time>
      </trkpt>
      <trkpt lat="45.96088" lon="6.55793">
        <ele>2440</ele>
        <time>2022-05-01T10:19:25Z</time>
      </trkpt>
      <trkpt lat="45.96081" lon="6.55798">
        <ele>2442</ele>
        <time>2022-05-01T10:19:33Z</time>
      </trkpt>
      <trkpt lat="45.96083" lon="6.558">
        <ele>2445</ele>
        <time>2022-05-01T10:23:02Z</time>
      </trkpt>
      <trkpt lat="45.96093" lon="6.55805">
        <ele>2445</ele>
        <time>2022-05-01T10:23:21Z</time>
      </trkpt>
      <trkpt lat="45.96099" lon="6.55812">
        <ele>2448</ele>
        <time>2022-05-01T10:23:45Z</time>
      </trkpt>
      <trkpt lat="45.961" lon="6.55826">
        <ele>2449</ele>
        <time>2022-05-01T10:24:05Z</time>
      </trkpt>
      <trkpt lat="45.96105" lon="6.55834">
        <ele>2447</ele>
        <time>2022-05-01T10:24:16Z</time>
      </trkpt>
      <trkpt lat="45.9611" lon="6.55842">
        <ele>2446</ele>
        <time>2022-05-01T10:24:30Z</time>
      </trkpt>
      <trkpt lat="45.96114" lon="6.55847">
        <ele>2447</ele>
        <time>2022-05-01T10:24:37Z</time>
      </trkpt>
      <trkpt lat="45.96121" lon="6.55851">
        <ele>2448</ele>
        <time>2022-05-01T10:24:48Z</time>
      </trkpt>
      <trkpt lat="45.96126" lon="6.55859">
        <ele>2451</ele>
        <time>2022-05-01T10:25:04Z</time>
      </trkpt>
      <trkpt lat="45.96133" lon="6.55862">
        <ele>2453</ele>
        <time>2022-05-01T10:25:19Z</time>
      </trkpt>
      <trkpt lat="45.96138" lon="6.55869">
        <ele>2453</ele>
        <time>2022-05-01T10:25:50Z</time>
      </trkpt>
      <trkpt lat="45.96135" lon="6.55878">
        <ele>2457</ele>
        <time>2022-05-01T10:26:16Z</time>
      </trkpt>
      <trkpt lat="45.96139" lon="6.55883">
        <ele>2460</ele>
        <time>2022-05-01T10:27:07Z</time>
      </trkpt>
      <trkpt lat="45.96135" lon="6.5589">
        <ele>2464</ele>
        <time>2022-05-01T10:28:18Z</time>
      </trkpt>
      <trkpt lat="45.96138" lon="6.55897">
        <ele>2467</ele>
        <time>2022-05-01T10:30:21Z</time>
      </trkpt>
      <trkpt lat="45.96142" lon="6.55907">
        <ele>2470</ele>
        <time>2022-05-01T10:30:42Z</time>
      </trkpt>
      <trkpt lat="45.96145" lon="6.55907">
        <ele>2481</ele>
        <time>2022-05-01T10:45:39Z</time>
      </trkpt>
      <trkpt lat="45.9614" lon="6.55899">
        <ele>2482</ele>
        <time>2022-05-01T10:50:06Z</time>
      </trkpt>
      <trkpt lat="45.9614" lon="6.55885">
        <ele>2488</ele>
        <time>2022-05-01T10:52:59Z</time>
      </trkpt>
      <trkpt lat="45.96133" lon="6.55883">
        <ele>2484</ele>
        <time>2022-05-01T10:54:15Z</time>
      </trkpt>
      <trkpt lat="45.96124" lon="6.55852">
        <ele>2471</ele>
        <time>2022-05-01T11:02:56Z</time>
      </trkpt>
      <trkpt lat="45.96112" lon="6.55834">
        <ele>2467</ele>
        <time>2022-05-01T11:03:01Z</time>
      </trkpt>
      <trkpt lat="45.96105" lon="6.55816">
        <ele>2467</ele>
        <time>2022-05-01T11:03:05Z</time>
      </trkpt>
      <trkpt lat="45.96083" lon="6.55801">
        <ele>2464</ele>
        <time>2022-05-01T11:03:13Z</time>
      </trkpt>
      <trkpt lat="45.9608" lon="6.55802">
        <ele>2459</ele>
        <time>2022-05-01T11:05:07Z</time>
      </trkpt>
      <trkpt lat="45.96092" lon="6.55796">
        <ele>2459</ele>
        <time>2022-05-01T11:05:12Z</time>
      </trkpt>
      <trkpt lat="45.96103" lon="6.55788">
        <ele>2455</ele>
        <time>2022-05-01T11:05:17Z</time>
      </trkpt>
      <trkpt lat="45.96115" lon="6.55794">
        <ele>2451</ele>
        <time>2022-05-01T11:05:23Z</time>
      </trkpt>
      <trkpt lat="45.96132" lon="6.55774">
        <ele>2447</ele>
        <time>2022-05-01T11:05:31Z</time>
      </trkpt>
      <trkpt lat="45.96132" lon="6.55738">
        <ele>2440</ele>
        <time>2022-05-01T11:05:35Z</time>
      </trkpt>
      <trkpt lat="45.96136" lon="6.55714">
        <ele>2435</ele>
        <time>2022-05-01T11:05:38Z</time>
      </trkpt>
      <trkpt lat="45.96137" lon="6.55693">
        <ele>2430</ele>
        <time>2022-05-01T11:05:43Z</time>
      </trkpt>
      <trkpt lat="45.96135" lon="6.55666">
        <ele>2422</ele>
        <time>2022-05-01T11:05:46Z</time>
      </trkpt>
      <trkpt lat="45.96132" lon="6.55645">
        <ele>2418</ele>
        <time>2022-05-01T11:05:48Z</time>
      </trkpt>
      <trkpt lat="45.96129" lon="6.55623">
        <ele>2412</ele>
        <time>2022-05-01T11:05:51Z</time>
      </trkpt>
      <trkpt lat="45.96124" lon="6.55604">
        <ele>2409</ele>
        <time>2022-05-01T11:05:54Z</time>
      </trkpt>
      <trkpt lat="45.9613" lon="6.55589">
        <ele>2405</ele>
        <time>2022-05-01T11:05:57Z</time>
      </trkpt>
      <trkpt lat="45.96126" lon="6.55576">
        <ele>2401</ele>
        <time>2022-05-01T11:06:07Z</time>
      </trkpt>
      <trkpt lat="45.96135" lon="6.55565">
        <ele>2398</ele>
        <time>2022-05-01T11:07:19Z</time>
      </trkpt>
      <trkpt lat="45.9613" lon="6.5555">
        <ele>2398</ele>
        <time>2022-05-01T11:07:22Z</time>
      </trkpt>
      <trkpt lat="45.96133" lon="6.55529">
        <ele>2393</ele>
        <time>2022-05-01T11:07:25Z</time>
      </trkpt>
      <trkpt lat="45.96137" lon="6.55514">
        <ele>2389</ele>
        <time>2022-05-01T11:07:27Z</time>
      </trkpt>
      <trkpt lat="45.96144" lon="6.555">
        <ele>2385</ele>
        <time>2022-05-01T11:07:30Z</time>
      </trkpt>
      <trkpt lat="45.96145" lon="6.55476">
        <ele>2383</ele>
        <time>2022-05-01T11:07:33Z</time>
      </trkpt>
      <trkpt lat="45.96141" lon="6.5545">
        <ele>2378</ele>
        <time>2022-05-01T11:07:36Z</time>
      </trkpt>
      <trkpt lat="45.96148" lon="6.55435">
        <ele>2374</ele>
        <time>2022-05-01T11:07:39Z</time>
      </trkpt>
      <trkpt lat="45.96149" lon="6.55413">
        <ele>2371</ele>
        <time>2022-05-01T11:07:42Z</time>
      </trkpt>
      <trkpt lat="45.96152" lon="6.55397">
        <ele>2367</ele>
        <time>2022-05-01T11:07:44Z</time>
      </trkpt>
      <trkpt lat="45.96153" lon="6.55376">
        <ele>2364</ele>
        <time>2022-05-01T11:07:46Z</time>
      </trkpt>
      <trkpt lat="45.96154" lon="6.55354">
        <ele>2360</ele>
        <time>2022-05-01T11:07:48Z</time>
      </trkpt>
      <trkpt lat="45.96161" lon="6.55342">
        <ele>2357</ele>
        <time>2022-05-01T11:07:50Z</time>
      </trkpt>
      <trkpt lat="45.96147" lon="6.55274">
        <ele>2335</ele>
        <time>2022-05-01T11:07:57Z</time>
      </trkpt>
      <trkpt lat="45.96133" lon="6.55252">
        <ele>2327</ele>
        <time>2022-05-01T11:08:00Z</time>
      </trkpt>
      <trkpt lat="45.96123" lon="6.55234">
        <ele>2322</ele>
        <time>2022-05-01T11:08:03Z</time>
      </trkpt>
      <trkpt lat="45.96113" lon="6.55221">
        <ele>2317</ele>
        <time>2022-05-01T11:08:10Z</time>
      </trkpt>
      <trkpt lat="45.96103" lon="6.55203">
        <ele>2314</ele>
        <time>2022-05-01T11:08:17Z</time>
      </trkpt>
      <trkpt lat="45.96095" lon="6.55191">
        <ele>2312</ele>
        <time>2022-05-01T11:08:19Z</time>
      </trkpt>
      <trkpt lat="45.96087" lon="6.55177">
        <ele>2310</ele>
        <time>2022-05-01T11:08:21Z</time>
      </trkpt>
      <trkpt lat="45.96053" lon="6.55136">
        <ele>2306</ele>
        <time>2022-05-01T11:10:20Z</time>
      </trkpt>
      <trkpt lat="45.9604" lon="6.55122">
        <ele>2304</ele>
        <time>2022-05-01T11:10:23Z</time>
      </trkpt>
      <trkpt lat="45.96029" lon="6.55114">
        <ele>2303</ele>
        <time>2022-05-01T11:10:25Z</time>
      </trkpt>
      <trkpt lat="45.96017" lon="6.55107">
        <ele>2300</ele>
        <time>2022-05-01T11:10:29Z</time>
      </trkpt>
      <trkpt lat="45.96008" lon="6.5509">
        <ele>2298</ele>
        <time>2022-05-01T11:10:33Z</time>
      </trkpt>
      <trkpt lat="45.96007" lon="6.55067">
        <ele>2296</ele>
        <time>2022-05-01T11:10:35Z</time>
      </trkpt>
      <trkpt lat="45.96009" lon="6.55048">
        <ele>2293</ele>
        <time>2022-05-01T11:10:37Z</time>
      </trkpt>
      <trkpt lat="45.96007" lon="6.55029">
        <ele>2292</ele>
        <time>2022-05-01T11:10:39Z</time>
      </trkpt>
      <trkpt lat="45.96015" lon="6.55018">
        <ele>2289</ele>
        <time>2022-05-01T11:10:44Z</time>
      </trkpt>
      <trkpt lat="45.96019" lon="6.55001">
        <ele>2288</ele>
        <time>2022-05-01T11:10:46Z</time>
      </trkpt>
      <trkpt lat="45.96005" lon="6.54986">
        <ele>2284</ele>
        <time>2022-05-01T11:10:49Z</time>
      </trkpt>
      <trkpt lat="45.95993" lon="6.54974">
        <ele>2280</ele>
        <time>2022-05-01T11:10:51Z</time>
      </trkpt>
      <trkpt lat="45.95979" lon="6.54966">
        <ele>2278</ele>
        <time>2022-05-01T11:10:53Z</time>
      </trkpt>
      <trkpt lat="45.95965" lon="6.54963">
        <ele>2275</ele>
        <time>2022-05-01T11:10:55Z</time>
      </trkpt>
      <trkpt lat="45.95952" lon="6.54959">
        <ele>2274</ele>
        <time>2022-05-01T11:10:57Z</time>
      </trkpt>
      <trkpt lat="45.95952" lon="6.54938">
        <ele>2271</ele>
        <time>2022-05-01T11:11:00Z</time>
      </trkpt>
      <trkpt lat="45.95948" lon="6.54898">
        <ele>2266</ele>
        <time>2022-05-01T11:11:05Z</time>
      </trkpt>
      <trkpt lat="45.95945" lon="6.54877">
        <ele>2264</ele>
        <time>2022-05-01T11:11:07Z</time>
      </trkpt>
      <trkpt lat="45.95941" lon="6.5484">
        <ele>2258</ele>
        <time>2022-05-01T11:11:13Z</time>
      </trkpt>
      <trkpt lat="45.95948" lon="6.54826">
        <ele>2253</ele>
        <time>2022-05-01T11:11:18Z</time>
      </trkpt>
      <trkpt lat="45.95953" lon="6.54818">
        <ele>2252</ele>
        <time>2022-05-01T11:13:09Z</time>
      </trkpt>
      <trkpt lat="45.9595" lon="6.54799">
        <ele>2252</ele>
        <time>2022-05-01T11:13:12Z</time>
      </trkpt>
      <trkpt lat="45.95944" lon="6.54787">
        <ele>2247</ele>
        <time>2022-05-01T11:13:15Z</time>
      </trkpt>
      <trkpt lat="45.95945" lon="6.54775">
        <ele>2246</ele>
        <time>2022-05-01T11:13:17Z</time>
      </trkpt>
      <trkpt lat="45.95939" lon="6.54758">
        <ele>2242</ele>
        <time>2022-05-01T11:13:20Z</time>
      </trkpt>
      <trkpt lat="45.9594" lon="6.54739">
        <ele>2238</ele>
        <time>2022-05-01T11:13:23Z</time>
      </trkpt>
      <trkpt lat="45.95938" lon="6.54717">
        <ele>2235</ele>
        <time>2022-05-01T11:13:26Z</time>
      </trkpt>
      <trkpt lat="45.95937" lon="6.54696">
        <ele>2228</ele>
        <time>2022-05-01T11:13:29Z</time>
      </trkpt>
      <trkpt lat="45.95931" lon="6.5468">
        <ele>2225</ele>
        <time>2022-05-01T11:13:32Z</time>
      </trkpt>
      <trkpt lat="45.95929" lon="6.54658">
        <ele>2221</ele>
        <time>2022-05-01T11:13:35Z</time>
      </trkpt>
      <trkpt lat="45.95916" lon="6.54645">
        <ele>2219</ele>
        <time>2022-05-01T11:13:39Z</time>
      </trkpt>
      <trkpt lat="45.95904" lon="6.54622">
        <ele>2213</ele>
        <time>2022-05-01T11:13:42Z</time>
      </trkpt>
      <trkpt lat="45.959" lon="6.54601">
        <ele>2207</ele>
        <time>2022-05-01T11:13:45Z</time>
      </trkpt>
      <trkpt lat="45.95901" lon="6.54577">
        <ele>2203</ele>
        <time>2022-05-01T11:13:49Z</time>
      </trkpt>
      <trkpt lat="45.9591" lon="6.54558">
        <ele>2196</ele>
        <time>2022-05-01T11:13:52Z</time>
      </trkpt>
      <trkpt lat="45.95915" lon="6.54537">
        <ele>2192</ele>
        <time>2022-05-01T11:13:55Z</time>
      </trkpt>
      <trkpt lat="45.95921" lon="6.54528">
        <ele>2190</ele>
        <time>2022-05-01T11:14:13Z</time>
      </trkpt>
      <trkpt lat="45.95928" lon="6.54523">
        <ele>2186</ele>
        <time>2022-05-01T11:14:15Z</time>
      </trkpt>
      <trkpt lat="45.95931" lon="6.54511">
        <ele>2183</ele>
        <time>2022-05-01T11:14:18Z</time>
      </trkpt>
      <trkpt lat="45.95934" lon="6.54486">
        <ele>2181</ele>
        <time>2022-05-01T11:14:42Z</time>
      </trkpt>
      <trkpt lat="45.95941" lon="6.54469">
        <ele>2173</ele>
        <time>2022-05-01T11:14:45Z</time>
      </trkpt>
      <trkpt lat="45.95946" lon="6.54454">
        <ele>2170</ele>
        <time>2022-05-01T11:14:48Z</time>
      </trkpt>
      <trkpt lat="45.95951" lon="6.54439">
        <ele>2165</ele>
        <time>2022-05-01T11:14:50Z</time>
      </trkpt>
      <trkpt lat="45.95955" lon="6.54424">
        <ele>2162</ele>
        <time>2022-05-01T11:14:52Z</time>
      </trkpt>
      <trkpt lat="45.95968" lon="6.54409">
        <ele>2155</ele>
        <time>2022-05-01T11:14:55Z</time>
      </trkpt>
      <trkpt lat="45.95978" lon="6.54384">
        <ele>2150</ele>
        <time>2022-05-01T11:15:00Z</time>
      </trkpt>
      <trkpt lat="45.95989" lon="6.54378">
        <ele>2146</ele>
        <time>2022-05-01T11:15:06Z</time>
      </trkpt>
      <trkpt lat="45.95998" lon="6.54375">
        <ele>2144</ele>
        <time>2022-05-01T11:15:12Z</time>
      </trkpt>
      <trkpt lat="45.96006" lon="6.54362">
        <ele>2142</ele>
        <time>2022-05-01T11:15:16Z</time>
      </trkpt>
      <trkpt lat="45.96004" lon="6.54345">
        <ele>2136</ele>
        <time>2022-05-01T11:15:19Z</time>
      </trkpt>
      <trkpt lat="45.96005" lon="6.54328">
        <ele>2132</ele>
        <time>2022-05-01T11:15:22Z</time>
      </trkpt>
      <trkpt lat="45.96015" lon="6.54319">
        <ele>2129</ele>
        <time>2022-05-01T11:15:25Z</time>
      </trkpt>
      <trkpt lat="45.96023" lon="6.54316">
        <ele>2122</ele>
        <time>2022-05-01T11:15:35Z</time>
      </trkpt>
      <trkpt lat="45.96037" lon="6.54314">
        <ele>2121</ele>
        <time>2022-05-01T11:16:03Z</time>
      </trkpt>
      <trkpt lat="45.96046" lon="6.543">
        <ele>2116</ele>
        <time>2022-05-01T11:16:07Z</time>
      </trkpt>
      <trkpt lat="45.96053" lon="6.54277">
        <ele>2107</ele>
        <time>2022-05-01T11:16:10Z</time>
      </trkpt>
      <trkpt lat="45.96063" lon="6.5427">
        <ele>2101</ele>
        <time>2022-05-01T11:16:13Z</time>
      </trkpt>
      <trkpt lat="45.96075" lon="6.54262">
        <ele>2093</ele>
        <time>2022-05-01T11:16:27Z</time>
      </trkpt>
      <trkpt lat="45.96084" lon="6.54254">
        <ele>2085</ele>
        <time>2022-05-01T11:16:31Z</time>
      </trkpt>
      <trkpt lat="45.96079" lon="6.54233">
        <ele>2079</ele>
        <time>2022-05-01T11:17:15Z</time>
      </trkpt>
      <trkpt lat="45.96084" lon="6.54219">
        <ele>2079</ele>
        <time>2022-05-01T11:17:18Z</time>
      </trkpt>
      <trkpt lat="45.96085" lon="6.54195">
        <ele>2077</ele>
        <time>2022-05-01T11:17:21Z</time>
      </trkpt>
      <trkpt lat="45.96094" lon="6.54183">
        <ele>2072</ele>
        <time>2022-05-01T11:17:24Z</time>
      </trkpt>
      <trkpt lat="45.96106" lon="6.54182">
        <ele>2068</ele>
        <time>2022-05-01T11:17:28Z</time>
      </trkpt>
      <trkpt lat="45.96131" lon="6.54183">
        <ele>2064</ele>
        <time>2022-05-01T11:17:37Z</time>
      </trkpt>
      <trkpt lat="45.96142" lon="6.54186">
        <ele>2058</ele>
        <time>2022-05-01T11:17:40Z</time>
      </trkpt>
      <trkpt lat="45.9615" lon="6.54189">
        <ele>2054</ele>
        <time>2022-05-01T11:17:42Z</time>
      </trkpt>
      <trkpt lat="45.96159" lon="6.54192">
        <ele>2051</ele>
        <time>2022-05-01T11:17:44Z</time>
      </trkpt>
      <trkpt lat="45.96167" lon="6.54195">
        <ele>2049</ele>
        <time>2022-05-01T11:17:46Z</time>
      </trkpt>
      <trkpt lat="45.96173" lon="6.5419">
        <ele>2048</ele>
        <time>2022-05-01T11:17:49Z</time>
      </trkpt>
      <trkpt lat="45.96186" lon="6.54181">
        <ele>2046</ele>
        <time>2022-05-01T11:17:55Z</time>
      </trkpt>
      <trkpt lat="45.96196" lon="6.54189">
        <ele>2044</ele>
        <time>2022-05-01T11:18:05Z</time>
      </trkpt>
      <trkpt lat="45.96208" lon="6.54193">
        <ele>2038</ele>
        <time>2022-05-01T11:18:08Z</time>
      </trkpt>
      <trkpt lat="45.96219" lon="6.54188">
        <ele>2034</ele>
        <time>2022-05-01T11:18:11Z</time>
      </trkpt>
      <trkpt lat="45.9623" lon="6.54176">
        <ele>2027</ele>
        <time>2022-05-01T11:18:14Z</time>
      </trkpt>
      <trkpt lat="45.9624" lon="6.54167">
        <ele>2021</ele>
        <time>2022-05-01T11:18:18Z</time>
      </trkpt>
      <trkpt lat="45.96246" lon="6.5416">
        <ele>2018</ele>
        <time>2022-05-01T11:18:24Z</time>
      </trkpt>
      <trkpt lat="45.9625" lon="6.54148">
        <ele>2017</ele>
        <time>2022-05-01T11:18:28Z</time>
      </trkpt>
      <trkpt lat="45.96251" lon="6.54137">
        <ele>2014</ele>
        <time>2022-05-01T11:18:31Z</time>
      </trkpt>
      <trkpt lat="45.96246" lon="6.54125">
        <ele>2012</ele>
        <time>2022-05-01T11:18:34Z</time>
      </trkpt>
      <trkpt lat="45.96241" lon="6.54107">
        <ele>2007</ele>
        <time>2022-05-01T11:18:39Z</time>
      </trkpt>
      <trkpt lat="45.96239" lon="6.54095">
        <ele>2003</ele>
        <time>2022-05-01T11:18:42Z</time>
      </trkpt>
      <trkpt lat="45.96232" lon="6.54076">
        <ele>1999</ele>
        <time>2022-05-01T11:19:01Z</time>
      </trkpt>
      <trkpt lat="45.96226" lon="6.54063">
        <ele>1991</ele>
        <time>2022-05-01T11:19:04Z</time>
      </trkpt>
      <trkpt lat="45.96222" lon="6.54043">
        <ele>1982</ele>
        <time>2022-05-01T11:19:11Z</time>
      </trkpt>
      <trkpt lat="45.9621" lon="6.54026">
        <ele>1974</ele>
        <time>2022-05-01T11:19:14Z</time>
      </trkpt>
      <trkpt lat="45.96199" lon="6.54005">
        <ele>1970</ele>
        <time>2022-05-01T11:19:20Z</time>
      </trkpt>
      <trkpt lat="45.96195" lon="6.53984">
        <ele>1963</ele>
        <time>2022-05-01T11:19:24Z</time>
      </trkpt>
      <trkpt lat="45.96181" lon="6.53968">
        <ele>1960</ele>
        <time>2022-05-01T11:19:28Z</time>
      </trkpt>
      <trkpt lat="45.9617" lon="6.53962">
        <ele>1956</ele>
        <time>2022-05-01T11:19:31Z</time>
      </trkpt>
      <trkpt lat="45.9616" lon="6.53953">
        <ele>1955</ele>
        <time>2022-05-01T11:19:34Z</time>
      </trkpt>
      <trkpt lat="45.9615" lon="6.53944">
        <ele>1952</ele>
        <time>2022-05-01T11:19:37Z</time>
      </trkpt>
      <trkpt lat="45.96139" lon="6.53935">
        <ele>1950</ele>
        <time>2022-05-01T11:19:39Z</time>
      </trkpt>
      <trkpt lat="45.96124" lon="6.53915">
        <ele>1945</ele>
        <time>2022-05-01T11:19:42Z</time>
      </trkpt>
      <trkpt lat="45.96118" lon="6.53912">
        <ele>1942</ele>
        <time>2022-05-01T11:20:01Z</time>
      </trkpt>
      <trkpt lat="45.9611" lon="6.53902">
        <ele>1933</ele>
        <time>2022-05-01T11:24:54Z</time>
      </trkpt>
      <trkpt lat="45.96123" lon="6.53889">
        <ele>1932</ele>
        <time>2022-05-01T11:26:46Z</time>
      </trkpt>
      <trkpt lat="45.9614" lon="6.53901">
        <ele>1932</ele>
        <time>2022-05-01T11:26:49Z</time>
      </trkpt>
      <trkpt lat="45.96149" lon="6.5391">
        <ele>1931</ele>
        <time>2022-05-01T11:26:55Z</time>
      </trkpt>
      <trkpt lat="45.96163" lon="6.53918">
        <ele>1931</ele>
        <time>2022-05-01T11:27:04Z</time>
      </trkpt>
      <trkpt lat="45.96191" lon="6.53932">
        <ele>1933</ele>
        <time>2022-05-01T11:27:11Z</time>
      </trkpt>
      <trkpt lat="45.96203" lon="6.53933">
        <ele>1934</ele>
        <time>2022-05-01T11:27:15Z</time>
      </trkpt>
      <trkpt lat="45.96215" lon="6.53923">
        <ele>1933</ele>
        <time>2022-05-01T11:27:26Z</time>
      </trkpt>
      <trkpt lat="45.96223" lon="6.53911">
        <ele>1933</ele>
        <time>2022-05-01T11:27:38Z</time>
      </trkpt>
      <trkpt lat="45.96232" lon="6.53919">
        <ele>1929</ele>
        <time>2022-05-01T11:27:57Z</time>
      </trkpt>
      <trkpt lat="45.96237" lon="6.5391">
        <ele>1926</ele>
        <time>2022-05-01T11:28:22Z</time>
      </trkpt>
      <trkpt lat="45.9622" lon="6.53863">
        <ele>1924</ele>
        <time>2022-05-01T11:28:34Z</time>
      </trkpt>
      <trkpt lat="45.96247" lon="6.53868">
        <ele>1921</ele>
        <time>2022-05-01T11:28:44Z</time>
      </trkpt>
      <trkpt lat="45.96263" lon="6.53864">
        <ele>1920</ele>
        <time>2022-05-01T11:28:48Z</time>
      </trkpt>
      <trkpt lat="45.9627" lon="6.53859">
        <ele>1920</ele>
        <time>2022-05-01T11:28:50Z</time>
      </trkpt>
      <trkpt lat="45.96303" lon="6.53844">
        <ele>1919</ele>
        <time>2022-05-01T11:29:01Z</time>
      </trkpt>
      <trkpt lat="45.96313" lon="6.53837">
        <ele>1918</ele>
        <time>2022-05-01T11:29:04Z</time>
      </trkpt>
      <trkpt lat="45.96321" lon="6.53838">
        <ele>1916</ele>
        <time>2022-05-01T11:29:10Z</time>
      </trkpt>
      <trkpt lat="45.96329" lon="6.53833">
        <ele>1916</ele>
        <time>2022-05-01T11:29:15Z</time>
      </trkpt>
      <trkpt lat="45.96333" lon="6.53832">
        <ele>1909</ele>
        <time>2022-05-01T11:31:45Z</time>
      </trkpt>
      <trkpt lat="45.96341" lon="6.53829">
        <ele>1908</ele>
        <time>2022-05-01T11:31:56Z</time>
      </trkpt>
      <trkpt lat="45.9635" lon="6.53826">
        <ele>1907</ele>
        <time>2022-05-01T11:32:10Z</time>
      </trkpt>
      <trkpt lat="45.96359" lon="6.53821">
        <ele>1906</ele>
        <time>2022-05-01T11:32:24Z</time>
      </trkpt>
      <trkpt lat="45.96363" lon="6.53813">
        <ele>1907</ele>
        <time>2022-05-01T11:32:32Z</time>
      </trkpt>
      <trkpt lat="45.9637" lon="6.53808">
        <ele>1908</ele>
        <time>2022-05-01T11:33:03Z</time>
      </trkpt>
      <trkpt lat="45.96375" lon="6.538">
        <ele>1914</ele>
        <time>2022-05-01T11:34:01Z</time>
      </trkpt>
      <trkpt lat="45.96377" lon="6.5379">
        <ele>1917</ele>
        <time>2022-05-01T11:34:11Z</time>
      </trkpt>
      <trkpt lat="45.96379" lon="6.53782">
        <ele>1919</ele>
        <time>2022-05-01T11:34:19Z</time>
      </trkpt>
      <trkpt lat="45.96383" lon="6.53766">
        <ele>1923</ele>
        <time>2022-05-01T11:34:46Z</time>
      </trkpt>
      <trkpt lat="45.96389" lon="6.53756">
        <ele>1924</ele>
        <time>2022-05-01T11:35:15Z</time>
      </trkpt>
      <trkpt lat="45.96396" lon="6.5375">
        <ele>1923</ele>
        <time>2022-05-01T11:35:35Z</time>
      </trkpt>
      <trkpt lat="45.96402" lon="6.53742">
        <ele>1923</ele>
        <time>2022-05-01T11:35:53Z</time>
      </trkpt>
      <trkpt lat="45.96404" lon="6.53732">
        <ele>1921</ele>
        <time>2022-05-01T11:36:35Z</time>
      </trkpt>
      <trkpt lat="45.96405" lon="6.53722">
        <ele>1921</ele>
        <time>2022-05-01T11:36:43Z</time>
      </trkpt>
      <trkpt lat="45.96414" lon="6.53704">
        <ele>1930</ele>
        <time>2022-05-01T11:37:06Z</time>
      </trkpt>
      <trkpt lat="45.96414" lon="6.53693">
        <ele>1933</ele>
        <time>2022-05-01T11:37:22Z</time>
      </trkpt>
      <trkpt lat="45.9642" lon="6.53676">
        <ele>1937</ele>
        <time>2022-05-01T11:37:59Z</time>
      </trkpt>
      <trkpt lat="45.96428" lon="6.53666">
        <ele>1940</ele>
        <time>2022-05-01T11:38:12Z</time>
      </trkpt>
      <trkpt lat="45.96432" lon="6.53659">
        <ele>1943</ele>
        <time>2022-05-01T11:38:35Z</time>
      </trkpt>
      <trkpt lat="45.96438" lon="6.53654">
        <ele>1946</ele>
        <time>2022-05-01T11:38:54Z</time>
      </trkpt>
      <trkpt lat="45.96442" lon="6.53648">
        <ele>1946</ele>
        <time>2022-05-01T11:39:08Z</time>
      </trkpt>
      <trkpt lat="45.9645" lon="6.53628">
        <ele>1947</ele>
        <time>2022-05-01T11:39:43Z</time>
      </trkpt>
      <trkpt lat="45.9646" lon="6.53622">
        <ele>1950</ele>
        <time>2022-05-01T11:40:05Z</time>
      </trkpt>
      <trkpt lat="45.96466" lon="6.53616">
        <ele>1951</ele>
        <time>2022-05-01T11:40:18Z</time>
      </trkpt>
      <trkpt lat="45.96463" lon="6.53599">
        <ele>1950</ele>
        <time>2022-05-01T11:44:15Z</time>
      </trkpt>
      <trkpt lat="45.96461" lon="6.53587">
        <ele>1950</ele>
        <time>2022-05-01T11:44:18Z</time>
      </trkpt>
      <trkpt lat="45.96403" lon="6.53484">
        <ele>1951</ele>
        <time>2022-05-01T11:44:44Z</time>
      </trkpt>
      <trkpt lat="45.96388" lon="6.53455">
        <ele>1947</ele>
        <time>2022-05-01T11:44:49Z</time>
      </trkpt>
      <trkpt lat="45.96382" lon="6.5344">
        <ele>1943</ele>
        <time>2022-05-01T11:44:52Z</time>
      </trkpt>
      <trkpt lat="45.96391" lon="6.53436">
        <ele>1941</ele>
        <time>2022-05-01T11:46:43Z</time>
      </trkpt>
      <trkpt lat="45.96398" lon="6.53426">
        <ele>1939</ele>
        <time>2022-05-01T11:46:46Z</time>
      </trkpt>
      <trkpt lat="45.96399" lon="6.53414">
        <ele>1937</ele>
        <time>2022-05-01T11:46:48Z</time>
      </trkpt>
      <trkpt lat="45.96412" lon="6.53404">
        <ele>1932</ele>
        <time>2022-05-01T11:46:51Z</time>
      </trkpt>
      <trkpt lat="45.96419" lon="6.5339">
        <ele>1926</ele>
        <time>2022-05-01T11:46:54Z</time>
      </trkpt>
      <trkpt lat="45.96429" lon="6.53385">
        <ele>1923</ele>
        <time>2022-05-01T11:46:56Z</time>
      </trkpt>
      <trkpt lat="45.9644" lon="6.53378">
        <ele>1917</ele>
        <time>2022-05-01T11:46:58Z</time>
      </trkpt>
      <trkpt lat="45.96456" lon="6.5337">
        <ele>1912</ele>
        <time>2022-05-01T11:47:01Z</time>
      </trkpt>
      <trkpt lat="45.96472" lon="6.5335">
        <ele>1900</ele>
        <time>2022-05-01T11:47:04Z</time>
      </trkpt>
      <trkpt lat="45.96479" lon="6.53329">
        <ele>1893</ele>
        <time>2022-05-01T11:47:06Z</time>
      </trkpt>
      <trkpt lat="45.96482" lon="6.53309">
        <ele>1889</ele>
        <time>2022-05-01T11:47:08Z</time>
      </trkpt>
      <trkpt lat="45.96489" lon="6.53291">
        <ele>1884</ele>
        <time>2022-05-01T11:47:10Z</time>
      </trkpt>
      <trkpt lat="45.965" lon="6.53278">
        <ele>1881</ele>
        <time>2022-05-01T11:47:13Z</time>
      </trkpt>
      <trkpt lat="45.96504" lon="6.53268">
        <ele>1876</ele>
        <time>2022-05-01T11:47:15Z</time>
      </trkpt>
      <trkpt lat="45.96508" lon="6.53257">
        <ele>1874</ele>
        <time>2022-05-01T11:47:17Z</time>
      </trkpt>
      <trkpt lat="45.96509" lon="6.53241">
        <ele>1867</ele>
        <time>2022-05-01T11:47:20Z</time>
      </trkpt>
      <trkpt lat="45.96514" lon="6.53231">
        <ele>1865</ele>
        <time>2022-05-01T11:47:22Z</time>
      </trkpt>
      <trkpt lat="45.96523" lon="6.53215">
        <ele>1860</ele>
        <time>2022-05-01T11:47:25Z</time>
      </trkpt>
      <trkpt lat="45.96533" lon="6.53216">
        <ele>1855</ele>
        <time>2022-05-01T11:47:27Z</time>
      </trkpt>
      <trkpt lat="45.9654" lon="6.53212">
        <ele>1851</ele>
        <time>2022-05-01T11:47:39Z</time>
      </trkpt>
      <trkpt lat="45.96535" lon="6.53198">
        <ele>1851</ele>
        <time>2022-05-01T11:47:48Z</time>
      </trkpt>
      <trkpt lat="45.96531" lon="6.53187">
        <ele>1849</ele>
        <time>2022-05-01T11:47:54Z</time>
      </trkpt>
      <trkpt lat="45.96531" lon="6.53177">
        <ele>1848</ele>
        <time>2022-05-01T11:47:57Z</time>
      </trkpt>
      <trkpt lat="45.96539" lon="6.53167">
        <ele>1846</ele>
        <time>2022-05-01T11:48:00Z</time>
      </trkpt>
      <trkpt lat="45.96546" lon="6.53162">
        <ele>1843</ele>
        <time>2022-05-01T11:48:02Z</time>
      </trkpt>
      <trkpt lat="45.96558" lon="6.53153">
        <ele>1838</ele>
        <time>2022-05-01T11:48:05Z</time>
      </trkpt>
      <trkpt lat="45.96562" lon="6.53143">
        <ele>1834</ele>
        <time>2022-05-01T11:48:07Z</time>
      </trkpt>
      <trkpt lat="45.96574" lon="6.53138">
        <ele>1831</ele>
        <time>2022-05-01T11:48:11Z</time>
      </trkpt>
      <trkpt lat="45.9658" lon="6.53117">
        <ele>1814</ele>
        <time>2022-05-01T11:48:16Z</time>
      </trkpt>
      <trkpt lat="45.96588" lon="6.531">
        <ele>1802</ele>
        <time>2022-05-01T11:48:20Z</time>
      </trkpt>
      <trkpt lat="45.96601" lon="6.53104">
        <ele>1795</ele>
        <time>2022-05-01T11:48:23Z</time>
      </trkpt>
      <trkpt lat="45.9662" lon="6.53089">
        <ele>1785</ele>
        <time>2022-05-01T11:48:39Z</time>
      </trkpt>
      <trkpt lat="45.96634" lon="6.53077">
        <ele>1781</ele>
        <time>2022-05-01T11:48:41Z</time>
      </trkpt>
      <trkpt lat="45.96643" lon="6.53069">
        <ele>1773</ele>
        <time>2022-05-01T11:48:43Z</time>
      </trkpt>
      <trkpt lat="45.96653" lon="6.53057">
        <ele>1768</ele>
        <time>2022-05-01T11:48:45Z</time>
      </trkpt>
      <trkpt lat="45.96669" lon="6.53053">
        <ele>1757</ele>
        <time>2022-05-01T11:48:49Z</time>
      </trkpt>
      <trkpt lat="45.9668" lon="6.53042">
        <ele>1753</ele>
        <time>2022-05-01T11:48:51Z</time>
      </trkpt>
      <trkpt lat="45.96692" lon="6.53028">
        <ele>1746</ele>
        <time>2022-05-01T11:48:53Z</time>
      </trkpt>
      <trkpt lat="45.96715" lon="6.53004">
        <ele>1740</ele>
        <time>2022-05-01T11:48:56Z</time>
      </trkpt>
      <trkpt lat="45.96721" lon="6.52996">
        <ele>1737</ele>
        <time>2022-05-01T11:48:57Z</time>
      </trkpt>
      <trkpt lat="45.96728" lon="6.52981">
        <ele>1735</ele>
        <time>2022-05-01T11:49:00Z</time>
      </trkpt>
      <trkpt lat="45.96734" lon="6.52964">
        <ele>1732</ele>
        <time>2022-05-01T11:49:04Z</time>
      </trkpt>
      <trkpt lat="45.9673" lon="6.52954">
        <ele>1724</ele>
        <time>2022-05-01T11:54:18Z</time>
      </trkpt>
      <trkpt lat="45.96733" lon="6.52938">
        <ele>1717</ele>
        <time>2022-05-01T11:55:21Z</time>
      </trkpt>
      <trkpt lat="45.96738" lon="6.5293">
        <ele>1718</ele>
        <time>2022-05-01T11:55:27Z</time>
      </trkpt>
      <trkpt lat="45.96744" lon="6.5292">
        <ele>1718</ele>
        <time>2022-05-01T11:55:33Z</time>
      </trkpt>
      <trkpt lat="45.96771" lon="6.52887">
        <ele>1721</ele>
        <time>2022-05-01T11:56:10Z</time>
      </trkpt>
      <trkpt lat="45.9678" lon="6.52876">
        <ele>1721</ele>
        <time>2022-05-01T11:56:21Z</time>
      </trkpt>
      <trkpt lat="45.96797" lon="6.52865">
        <ele>1721</ele>
        <time>2022-05-01T11:56:33Z</time>
      </trkpt>
      <trkpt lat="45.96815" lon="6.5286">
        <ele>1720</ele>
        <time>2022-05-01T11:56:55Z</time>
      </trkpt>
      <trkpt lat="45.9684" lon="6.52844">
        <ele>1721</ele>
        <time>2022-05-01T11:57:34Z</time>
      </trkpt>
      <trkpt lat="45.96848" lon="6.52839">
        <ele>1725</ele>
        <time>2022-05-01T11:57:49Z</time>
      </trkpt>
      <trkpt lat="45.96844" lon="6.5283">
        <ele>1726</ele>
        <time>2022-05-01T11:58:03Z</time>
      </trkpt>
      <trkpt lat="45.96837" lon="6.52826">
        <ele>1727</ele>
        <time>2022-05-01T11:58:08Z</time>
      </trkpt>
      <trkpt lat="45.96828" lon="6.52822">
        <ele>1728</ele>
        <time>2022-05-01T11:58:18Z</time>
      </trkpt>
      <trkpt lat="45.96825" lon="6.52812">
        <ele>1728</ele>
        <time>2022-05-01T11:59:06Z</time>
      </trkpt>
      <trkpt lat="45.96827" lon="6.52794">
        <ele>1728</ele>
        <time>2022-05-01T11:59:20Z</time>
      </trkpt>
      <trkpt lat="45.96829" lon="6.52783">
        <ele>1731</ele>
        <time>2022-05-01T11:59:32Z</time>
      </trkpt>
      <trkpt lat="45.96841" lon="6.52756">
        <ele>1733</ele>
        <time>2022-05-01T12:00:07Z</time>
      </trkpt>
      <trkpt lat="45.96846" lon="6.52742">
        <ele>1734</ele>
        <time>2022-05-01T12:00:22Z</time>
      </trkpt>
      <trkpt lat="45.9685" lon="6.5273">
        <ele>1734</ele>
        <time>2022-05-01T12:00:30Z</time>
      </trkpt>
      <trkpt lat="45.96861" lon="6.52711">
        <ele>1735</ele>
        <time>2022-05-01T12:01:01Z</time>
      </trkpt>
      <trkpt lat="45.9686" lon="6.527">
        <ele>1735</ele>
        <time>2022-05-01T12:01:12Z</time>
      </trkpt>
      <trkpt lat="45.96862" lon="6.52687">
        <ele>1739</ele>
        <time>2022-05-01T12:01:31Z</time>
      </trkpt>
      <trkpt lat="45.96861" lon="6.52678">
        <ele>1739</ele>
        <time>2022-05-01T12:01:43Z</time>
      </trkpt>
      <trkpt lat="45.96861" lon="6.5267">
        <ele>1741</ele>
        <time>2022-05-01T12:02:02Z</time>
      </trkpt>
      <trkpt lat="45.9686" lon="6.52659">
        <ele>1741</ele>
        <time>2022-05-01T12:02:16Z</time>
      </trkpt>
      <trkpt lat="45.96863" lon="6.5265">
        <ele>1742</ele>
        <time>2022-05-01T12:02:24Z</time>
      </trkpt>
      <trkpt lat="45.96865" lon="6.52646">
        <ele>1745</ele>
        <time>2022-05-01T12:03:17Z</time>
      </trkpt>
      <trkpt lat="45.96865" lon="6.5265">
        <ele>1747</ele>
        <time>2022-05-01T12:04:48Z</time>
      </trkpt>
      <trkpt lat="45.9686" lon="6.52652">
        <ele>1748</ele>
        <time>2022-05-01T12:05:16Z</time>
      </trkpt>
      <trkpt lat="45.96862" lon="6.52661">
        <ele>1749</ele>
        <time>2022-05-01T12:05:55Z</time>
      </trkpt>
      <trkpt lat="45.96865" lon="6.52671">
        <ele>1751</ele>
        <time>2022-05-01T12:06:11Z</time>
      </trkpt>
      <trkpt lat="45.96867" lon="6.5267">
        <ele>1751</ele>
        <time>2022-05-01T12:07:00Z</time>
      </trkpt>
      <trkpt lat="45.96875" lon="6.52665">
        <ele>1748</ele>
        <time>2022-05-01T12:25:08Z</time>
      </trkpt>
      <trkpt lat="45.96876" lon="6.52662">
        <ele>1751</ele>
        <time>2022-05-01T12:28:59Z</time>
      </trkpt>
      <trkpt lat="45.96873" lon="6.52652">
        <ele>1752</ele>
        <time>2022-05-01T12:29:07Z</time>
      </trkpt>
      <trkpt lat="45.96865" lon="6.52648">
        <ele>1753</ele>
        <time>2022-05-01T12:29:16Z</time>
      </trkpt>
      <trkpt lat="45.96866" lon="6.52638">
        <ele>1752</ele>
        <time>2022-05-01T12:31:53Z</time>
      </trkpt>
      <trkpt lat="45.96869" lon="6.52604">
        <ele>1750</ele>
        <time>2022-05-01T12:32:10Z</time>
      </trkpt>
      <trkpt lat="45.9687" lon="6.52593">
        <ele>1750</ele>
        <time>2022-05-01T12:32:17Z</time>
      </trkpt>
      <trkpt lat="45.96876" lon="6.52586">
        <ele>1751</ele>
        <time>2022-05-01T12:32:21Z</time>
      </trkpt>
      <trkpt lat="45.96894" lon="6.5257">
        <ele>1751</ele>
        <time>2022-05-01T12:32:29Z</time>
      </trkpt>
      <trkpt lat="45.96903" lon="6.5256">
        <ele>1752</ele>
        <time>2022-05-01T12:32:32Z</time>
      </trkpt>
      <trkpt lat="45.96909" lon="6.52544">
        <ele>1752</ele>
        <time>2022-05-01T12:32:35Z</time>
      </trkpt>
      <trkpt lat="45.96912" lon="6.52528">
        <ele>1752</ele>
        <time>2022-05-01T12:32:37Z</time>
      </trkpt>
      <trkpt lat="45.96906" lon="6.52512">
        <ele>1749</ele>
        <time>2022-05-01T12:32:39Z</time>
      </trkpt>
      <trkpt lat="45.96899" lon="6.52496">
        <ele>1747</ele>
        <time>2022-05-01T12:32:41Z</time>
      </trkpt>
      <trkpt lat="45.96891" lon="6.5244">
        <ele>1739</ele>
        <time>2022-05-01T12:32:53Z</time>
      </trkpt>
      <trkpt lat="45.96901" lon="6.52425">
        <ele>1737</ele>
        <time>2022-05-01T12:32:57Z</time>
      </trkpt>
      <trkpt lat="45.96911" lon="6.52414">
        <ele>1733</ele>
        <time>2022-05-01T12:33:00Z</time>
      </trkpt>
      <trkpt lat="45.96911" lon="6.52402">
        <ele>1729</ele>
        <time>2022-05-01T12:33:03Z</time>
      </trkpt>
      <trkpt lat="45.96908" lon="6.524">
        <ele>1724</ele>
        <time>2022-05-01T12:33:39Z</time>
      </trkpt>
      <trkpt lat="45.9691" lon="6.52382">
        <ele>1723</ele>
        <time>2022-05-01T12:33:53Z</time>
      </trkpt>
      <trkpt lat="45.96923" lon="6.52371">
        <ele>1719</ele>
        <time>2022-05-01T12:33:55Z</time>
      </trkpt>
      <trkpt lat="45.96935" lon="6.52366">
        <ele>1717</ele>
        <time>2022-05-01T12:33:57Z</time>
      </trkpt>
      <trkpt lat="45.96944" lon="6.52356">
        <ele>1714</ele>
        <time>2022-05-01T12:33:59Z</time>
      </trkpt>
      <trkpt lat="45.96938" lon="6.52314">
        <ele>1711</ele>
        <time>2022-05-01T12:34:04Z</time>
      </trkpt>
      <trkpt lat="45.96932" lon="6.52285">
        <ele>1707</ele>
        <time>2022-05-01T12:34:07Z</time>
      </trkpt>
      <trkpt lat="45.96929" lon="6.52268">
        <ele>1704</ele>
        <time>2022-05-01T12:34:09Z</time>
      </trkpt>
      <trkpt lat="45.96926" lon="6.52256">
        <ele>1702</ele>
        <time>2022-05-01T12:34:11Z</time>
      </trkpt>
      <trkpt lat="45.96911" lon="6.52202">
        <ele>1695</ele>
        <time>2022-05-01T12:34:35Z</time>
      </trkpt>
      <trkpt lat="45.96894" lon="6.52125">
        <ele>1691</ele>
        <time>2022-05-01T12:34:56Z</time>
      </trkpt>
      <trkpt lat="45.96881" lon="6.52086">
        <ele>1687</ele>
        <time>2022-05-01T12:35:16Z</time>
      </trkpt>
      <trkpt lat="45.96872" lon="6.52064">
        <ele>1684</ele>
        <time>2022-05-01T12:35:37Z</time>
      </trkpt>
      <trkpt lat="45.96857" lon="6.52027">
        <ele>1681</ele>
        <time>2022-05-01T12:36:06Z</time>
      </trkpt>
      <trkpt lat="45.96854" lon="6.52016">
        <ele>1680</ele>
        <time>2022-05-01T12:36:11Z</time>
      </trkpt>
      <trkpt lat="45.96853" lon="6.51993">
        <ele>1679</ele>
        <time>2022-05-01T12:36:18Z</time>
      </trkpt>
      <trkpt lat="45.96846" lon="6.51973">
        <ele>1678</ele>
        <time>2022-05-01T12:36:32Z</time>
      </trkpt>
      <trkpt lat="45.96846" lon="6.51948">
        <ele>1675</ele>
        <time>2022-05-01T12:39:00Z</time>
      </trkpt>
      <trkpt lat="45.96843" lon="6.51844">
        <ele>1670</ele>
        <time>2022-05-01T12:39:14Z</time>
      </trkpt>
      <trkpt lat="45.96846" lon="6.51827">
        <ele>1669</ele>
        <time>2022-05-01T12:39:18Z</time>
      </trkpt>
      <trkpt lat="45.96852" lon="6.51811">
        <ele>1667</ele>
        <time>2022-05-01T12:39:55Z</time>
      </trkpt>
      <trkpt lat="45.96856" lon="6.51803">
        <ele>1666</ele>
        <time>2022-05-01T12:40:17Z</time>
      </trkpt>
      <trkpt lat="45.96854" lon="6.51792">
        <ele>1665</ele>
        <time>2022-05-01T12:40:41Z</time>
      </trkpt>
      <trkpt lat="45.96852" lon="6.51771">
        <ele>1665</ele>
        <time>2022-05-01T12:40:51Z</time>
      </trkpt>
      <trkpt lat="45.96848" lon="6.517">
        <ele>1662</ele>
        <time>2022-05-01T12:41:23Z</time>
      </trkpt>
      <trkpt lat="45.96848" lon="6.51691">
        <ele>1661</ele>
        <time>2022-05-01T12:41:33Z</time>
      </trkpt>
      <trkpt lat="45.96851" lon="6.51681">
        <ele>1660</ele>
        <time>2022-05-01T12:42:12Z</time>
      </trkpt>
      <trkpt lat="45.96846" lon="6.51676">
        <ele>1658</ele>
        <time>2022-05-01T12:42:19Z</time>
      </trkpt>
      <trkpt lat="45.96842" lon="6.5167">
        <ele>1657</ele>
        <time>2022-05-01T12:42:26Z</time>
      </trkpt>
      <trkpt lat="45.96839" lon="6.51662">
        <ele>1656</ele>
        <time>2022-05-01T12:42:33Z</time>
      </trkpt>
      <trkpt lat="45.96834" lon="6.51657">
        <ele>1655</ele>
        <time>2022-05-01T12:42:41Z</time>
      </trkpt>
    </trkseg>
  </trk>
</gpx>